Time,TemperatureF,DewpointF,PressureIn,WindDirection,WindDirectionDegrees,WindSpeedMPH,WindSpeedGustMPH,Humidity,HourlyPrecipIn,Conditions,Clouds,dailyrainin,SoftwareType,DateUTC
2013-02-06 00:00:00,35.2,18.4,29.72,WNW,287,0.0,0.0,50,0.00,CLR,,0.00,WeatherDisplay:10.37,2013-02-06 07:00:00,
2013-02-06 00:03:00,35.0,18.7,29.71,WNW,288,0.0,0.0,51,0.00,CLR,,0.00,WeatherDisplay:10.37,2013-02-06 07:03:00,
2013-02-06 00:05:00,34.9,19.0,29.71,WNW,288,0.0,0.0,52,0.00,CLR,,0.00,WeatherDisplay:10.37,2013-02-06 07:05:00,
2013-02-06 00:08:00,34.6,17.8,29.71,WNW,287,0.0,0.0,50,0.00,CLR,,0.00,WeatherDisplay:10.37,2013-02-06 07:08:00,
2013-02-06 00:09:00,34.6,17.8,29.71,WNW,288,1.0,1.0,50,0.00,CLR,,0.00,WeatherDisplay:10.37,2013-02-06 07:09:00,
2013-02-06 00:10:00,34.6,18.3,29.71,WSW,243,3.5,3.5,51,0.00,CLR,,0.00,WeatherDisplay:10.37,2013-02-06 07:10:00,
2013-02-06 00:13:00,34.4,18.1,29.71,WSW,243,3.5,3.5,51,0.00,CLR,,0.00,WeatherDisplay:10.37,2013-02-06 07:13:00,
2013-02-06 00:14:00,34.4,18.1,29.71,WSW,243,3.5,3.5,51,0.00,CLR,,0.00,WeatherDisplay:10.37,2013-02-06 07:14:00,
2013-02-06 00:15:00,34.4,18.1,29.71,WSW,243,2.3,2.3,51,0.00,CLR,,0.00,WeatherDisplay:10.37,2013-02-06 07:15:00,
2013-02-06 00:19:00,34.4,18.6,29.71,WSW,243,1.1,1.1,52,0.00,CLR,,0.00,WeatherDisplay:10.37,2013-02-06 07:19:00,
2013-02-06 00:20:00,34.3,18.5,29.71,WSW,243,4.0,4.0,52,0.00,CLR,,0.00,WeatherDisplay:10.37,2013-02-06 07:20:00,
2013-02-06 00:24:00,34.7,17.0,29.70,WSW,243,3.5,3.5,48,0.00,CLR,,0.00,WeatherDisplay:10.37,2013-02-06 07:24:00,
2013-02-06 00:25:00,35.2,17.4,29.70,WSW,245,1.1,1.1,48,0.00,CLR,,0.00,WeatherDisplay:10.37,2013-02-06 07:25:00,
2013-02-06 00:26:00,35.5,17.7,29.70,WSW,245,1.1,0.0,48,0.00,CLR,,0.00,WeatherDisplay:10.37,2013-02-06 07:26:00,
2013-02-06 00:29:00,36.2,17.4,29.69,WSW,245,0.0,0.0,46,0.00,CLR,,0.00,WeatherDisplay:10.37,2013-02-06 07:29:00,
2013-02-06 00:31:00,36.5,17.1,29.69,WSW,245,1.1,0.0,45,0.00,CLR,,0.00,WeatherDisplay:10.37,2013-02-06 07:31:00,
2013-02-06 00:34:00,36.8,17.9,29.69,WSW,245,0.0,0.0,46,0.00,CLR,,0.00,WeatherDisplay:10.37,2013-02-06 07:34:00,
2013-02-06 00:36:00,36.8,17.9,29.70,WSW,245,0.0,0.0,46,0.00,CLR,,0.00,WeatherDisplay:10.37,2013-02-06 07:36:00,
2013-02-06 00:39:00,36.6,18.2,29.70,WSW,245,0.0,0.0,47,0.00,CLR,,0.00,WeatherDisplay:10.37,2013-02-06 07:39:00,
2013-02-06 00:40:00,36.6,18.2,29.70,WSW,245,0.0,0.0,47,0.00,CLR,,0.00,WeatherDisplay:10.37,2013-02-06 07:40:00,
2013-02-06 00:41:00,36.6,17.7,29.70,WSW,245,0.0,0.0,46,0.00,CLR,,0.00,WeatherDisplay:10.37,2013-02-06 07:41:00,
2013-02-06 00:44:00,36.5,18.2,29.70,WSW,245,0.0,0.0,47,0.00,CLR,,0.00,WeatherDisplay:10.37,2013-02-06 07:44:00,
2013-02-06 00:45:00,36.3,18.0,29.70,WSW,245,1.1,1.1,47,0.00,CLR,,0.00,WeatherDisplay:10.37,2013-02-06 07:45:00,
2013-02-06 00:46:00,36.2,17.9,29.69,WSW,245,1.1,1.1,47,0.00,CLR,,0.00,WeatherDisplay:10.37,2013-02-06 07:46:00,
2013-02-06 00:47:00,36.2,17.9,29.69,WSW,245,2.3,2.3,47,0.00,CLR,,0.00,WeatherDisplay:10.37,2013-02-06 07:47:00,
2013-02-06 00:49:00,36.0,17.7,29.70,WSW,245,0.0,0.0,47,0.00,CLR,,0.00,WeatherDisplay:10.37,2013-02-06 07:49:00,
2013-02-06 00:50:00,36.0,17.7,29.70,WSW,245,0.0,0.0,47,0.00,CLR,,0.00,WeatherDisplay:10.37,2013-02-06 07:50:00,
2013-02-06 00:52:00,35.9,18.1,29.70,WSW,245,0.0,0.0,48,0.00,CLR,,0.00,WeatherDisplay:10.37,2013-02-06 07:52:00,
2013-02-06 00:54:00,35.6,18.3,29.70,WSW,245,0.0,0.0,49,0.00,CLR,,0.00,WeatherDisplay:10.37,2013-02-06 07:54:00,
2013-02-06 00:55:00,35.6,18.3,29.70,WSW,245,0.0,0.0,49,0.00,CLR,,0.00,WeatherDisplay:10.37,2013-02-06 07:55:00,
2013-02-06 00:57:00,35.5,18.2,29.70,WSW,245,0.0,0.0,49,0.00,CLR,,0.00,WeatherDisplay:10.37,2013-02-06 07:57:00,
2013-02-06 01:00:00,35.2,17.9,29.71,WSW,245,0.0,0.0,49,0.00,CLR,,0.00,WeatherDisplay:10.37,2013-02-06 08:00:00,
2013-02-06 01:02:00,35.0,18.2,29.69,WSW,245,0.0,0.0,50,0.00,CLR,,0.00,WeatherDisplay:10.37,2013-02-06 08:02:00,
2013-02-06 01:05:00,35.0,18.2,29.69,WSW,245,1.0,1.0,50,0.00,CLR,,0.00,WeatherDisplay:10.37,2013-02-06 08:05:00,
2013-02-06 01:07:00,34.9,18.6,29.69,WSW,245,2.3,0.0,51,0.00,CLR,,0.00,WeatherDisplay:10.37,2013-02-06 08:07:00,
2013-02-06 01:10:00,34.7,17.9,29.69,WSW,245,1.1,0.0,50,0.00,CLR,,0.00,WeatherDisplay:10.37,2013-02-06 08:10:00,
2013-02-06 01:12:00,34.4,18.1,29.69,WSW,245,3.5,3.5,51,0.00,CLR,,0.00,WeatherDisplay:10.37,2013-02-06 08:12:00,
2013-02-06 01:15:00,34.3,18.0,29.70,WSW,245,0.0,0.0,51,0.00,CLR,,0.00,WeatherDisplay:10.37,2013-02-06 08:15:00,
2013-02-06 01:17:00,34.0,18.2,29.70,WSW,245,0.0,0.0,52,0.00,CLR,,0.00,WeatherDisplay:10.37,2013-02-06 08:17:00,
2013-02-06 01:18:00,33.8,18.0,29.70,WSW,245,0.0,0.0,52,0.00,CLR,,0.00,WeatherDisplay:10.37,2013-02-06 08:18:00,
2013-02-06 01:20:00,33.5,17.7,29.69,WSW,245,0.0,0.0,52,0.00,CLR,,0.00,WeatherDisplay:10.37,2013-02-06 08:20:00,
2013-02-06 01:22:00,33.2,17.9,29.69,WSW,245,0.0,0.0,53,0.00,CLR,,0.00,WeatherDisplay:10.37,2013-02-06 08:22:00,
2013-02-06 01:23:00,33.2,17.9,29.69,WSW,245,0.0,0.0,53,0.00,CLR,,0.00,WeatherDisplay:10.37,2013-02-06 08:23:00,
2013-02-06 01:25:00,32.9,18.1,29.69,WSW,245,0.0,0.0,54,0.00,CLR,,0.00,WeatherDisplay:10.37,2013-02-06 08:25:00,
2013-02-06 01:26:00,32.9,18.1,29.69,WSW,245,0.0,0.0,54,0.00,CLR,,0.00,WeatherDisplay:10.37,2013-02-06 08:26:00,
2013-02-06 01:27:00,32.8,18.0,29.69,WSW,245,0.0,0.0,54,0.00,CLR,,0.00,WeatherDisplay:10.37,2013-02-06 08:27:00,
2013-02-06 01:28:00,32.8,18.0,29.69,WSW,245,0.0,0.0,54,0.00,CLR,,0.00,WeatherDisplay:10.37,2013-02-06 08:28:00,
2013-02-06 01:30:00,32.7,18.7,29.69,WSW,245,0.0,0.0,56,0.00,CLR,,0.00,WeatherDisplay:10.37,2013-02-06 08:30:00,
2013-02-06 01:31:00,32.5,18.5,29.69,WSW,245,0.0,0.0,56,0.00,CLR,,0.00,WeatherDisplay:10.37,2013-02-06 08:31:00,
2013-02-06 01:33:00,32.4,18.4,29.70,WSW,245,0.0,0.0,56,0.00,CLR,,0.00,WeatherDisplay:10.37,2013-02-06 08:33:00,
2013-02-06 01:35:00,32.2,18.2,29.70,WSW,245,0.0,0.0,56,0.00,CLR,,0.00,WeatherDisplay:10.37,2013-02-06 08:35:00,
2013-02-06 01:37:00,32.1,18.2,29.71,WSW,245,0.0,0.0,56,0.00,CLR,,0.00,WeatherDisplay:10.37,2013-02-06 08:37:00,
2013-02-06 01:38:00,32.1,18.2,29.71,WSW,245,0.0,0.0,56,0.00,CLR,,0.00,WeatherDisplay:10.37,2013-02-06 08:38:00,
2013-02-06 01:41:00,31.9,18.4,29.70,WSW,245,0.0,0.0,57,0.00,CLR,,0.00,WeatherDisplay:10.37,2013-02-06 08:41:00,
2013-02-06 01:42:00,31.8,18.7,29.70,WSW,245,1.1,0.0,58,0.00,CLR,,0.00,WeatherDisplay:10.37,2013-02-06 08:42:00,
2013-02-06 01:43:00,31.8,18.7,29.70,WSW,245,1.1,0.0,58,0.00,CLR,,0.00,WeatherDisplay:10.37,2013-02-06 08:43:00,
2013-02-06 01:46:00,31.5,18.0,29.69,WSW,245,0.0,0.0,57,0.00,CLR,,0.00,WeatherDisplay:10.37,2013-02-06 08:46:00,
2013-02-06 01:47:00,31.5,18.0,29.69,WSW,245,0.0,0.0,57,0.00,CLR,,0.00,WeatherDisplay:10.37,2013-02-06 08:47:00,
2013-02-06 01:48:00,31.3,17.8,29.69,WSW,245,0.0,0.0,57,0.00,CLR,,0.00,WeatherDisplay:10.37,2013-02-06 08:48:00,
2013-02-06 01:51:00,31.2,18.5,29.69,WSW,245,1.1,0.0,59,0.00,CLR,,0.00,WeatherDisplay:10.37,2013-02-06 08:51:00,
2013-02-06 01:52:00,31.0,18.3,29.69,WSW,245,0.0,0.0,59,0.00,CLR,,0.00,WeatherDisplay:10.37,2013-02-06 08:52:00,
2013-02-06 01:53:00,30.9,18.2,29.69,WSW,245,0.0,0.0,59,0.00,CLR,,0.00,WeatherDisplay:10.37,2013-02-06 08:53:00,
2013-02-06 01:56:00,30.7,18.4,29.70,WSW,245,0.0,0.0,60,0.00,CLR,,0.00,WeatherDisplay:10.37,2013-02-06 08:56:00,
2013-02-06 01:57:00,30.7,18.4,29.70,WSW,245,0.0,0.0,60,0.00,CLR,,0.00,WeatherDisplay:10.37,2013-02-06 08:57:00,
2013-02-06 01:58:00,30.7,18.4,29.70,WSW,245,0.0,0.0,60,0.00,CLR,,0.00,WeatherDisplay:10.37,2013-02-06 08:58:00,
2013-02-06 01:59:00,30.7,18.4,29.70,WSW,245,0.0,0.0,60,0.00,CLR,,0.00,WeatherDisplay:10.37,2013-02-06 08:59:00,
2013-02-06 02:01:00,30.6,18.7,29.70,WSW,245,3.5,3.5,61,0.00,CLR,,0.00,WeatherDisplay:10.37,2013-02-06 09:01:00,
2013-02-06 02:04:00,30.7,18.8,29.70,WSW,245,0.0,0.0,61,0.00,CLR,,0.00,WeatherDisplay:10.37,2013-02-06 09:04:00,
2013-02-06 02:05:00,30.7,19.2,29.70,WSW,245,0.0,0.0,62,0.00,CLR,,0.00,WeatherDisplay:10.37,2013-02-06 09:05:00,
2013-02-06 02:06:00,30.7,19.2,29.70,WSW,245,0.0,0.0,62,0.00,CLR,,0.00,WeatherDisplay:10.37,2013-02-06 09:06:00,
2013-02-06 02:09:00,30.6,19.5,29.70,WSW,245,0.0,0.0,63,0.00,CLR,,0.00,WeatherDisplay:10.37,2013-02-06 09:09:00,
2013-02-06 02:10:00,30.6,19.1,29.70,WSW,245,0.0,0.0,62,0.00,CLR,,0.00,WeatherDisplay:10.37,2013-02-06 09:10:00,
2013-02-06 02:11:00,30.6,19.1,29.70,WSW,245,0.0,0.0,62,0.00,CLR,,0.00,WeatherDisplay:10.37,2013-02-06 09:11:00,
2013-02-06 02:14:00,30.6,19.1,29.69,WSW,245,0.0,0.0,62,0.00,CLR,,0.00,WeatherDisplay:10.37,2013-02-06 09:14:00,
2013-02-06 02:15:00,30.6,19.1,29.69,WSW,245,0.0,0.0,62,0.00,CLR,,0.00,WeatherDisplay:10.37,2013-02-06 09:15:00,
2013-02-06 02:16:00,30.6,19.1,29.69,WSW,245,0.0,0.0,62,0.00,CLR,,0.00,WeatherDisplay:10.37,2013-02-06 09:16:00,
2013-02-06 02:19:00,30.6,19.1,29.70,SSW,206,2.3,2.3,62,0.00,CLR,,0.00,WeatherDisplay:10.37,2013-02-06 09:19:00,
2013-02-06 02:20:00,30.4,19.3,29.70,SSW,204,3.5,3.5,63,0.00,CLR,,0.00,WeatherDisplay:10.37,2013-02-06 09:20:00,
2013-02-06 02:21:00,30.4,19.3,29.70,SSW,206,4.6,4.6,63,0.00,CLR,,0.00,WeatherDisplay:10.37,2013-02-06 09:21:00,
2013-02-06 02:24:00,30.3,19.2,29.70,SSW,207,2.3,0.0,63,0.00,CLR,,0.00,WeatherDisplay:10.37,2013-02-06 09:24:00,
2013-02-06 02:25:00,30.3,19.2,29.70,SSW,207,0.0,0.0,63,0.00,CLR,,0.00,WeatherDisplay:10.37,2013-02-06 09:25:00,
2013-02-06 02:26:00,30.1,19.0,29.70,SSW,207,1.1,1.1,63,0.00,CLR,,0.00,WeatherDisplay:10.37,2013-02-06 09:26:00,
2013-02-06 02:30:00,30.1,19.4,29.70,SSW,207,3.5,3.5,64,0.00,CLR,,0.00,WeatherDisplay:10.37,2013-02-06 09:30:00,
2013-02-06 02:31:00,30.1,19.4,29.70,SSW,207,3.5,3.5,64,0.00,CLR,,0.00,WeatherDisplay:10.37,2013-02-06 09:31:00,
2013-02-06 02:35:00,30.1,19.4,29.70,SSW,207,0.0,0.0,64,0.00,CLR,,0.00,WeatherDisplay:10.37,2013-02-06 09:35:00,
2013-02-06 02:36:00,30.1,19.4,29.70,SSW,207,0.0,0.0,64,0.00,CLR,,0.00,WeatherDisplay:10.37,2013-02-06 09:36:00,
2013-02-06 02:40:00,30.1,19.4,29.70,SSW,207,0.0,0.0,64,0.00,CLR,,0.00,WeatherDisplay:10.37,2013-02-06 09:40:00,
2013-02-06 02:41:00,30.1,19.4,29.70,SSW,207,1.1,0.0,64,0.00,CLR,,0.00,WeatherDisplay:10.37,2013-02-06 09:41:00,
2013-02-06 02:46:00,30.1,19.4,29.69,SSW,207,1.0,1.0,64,0.00,CLR,,0.00,WeatherDisplay:10.37,2013-02-06 09:46:00,
2013-02-06 02:47:00,30.1,19.4,29.69,SSW,207,1.1,1.1,64,0.00,CLR,,0.00,WeatherDisplay:10.37,2013-02-06 09:47:00,
2013-02-06 02:51:00,30.4,19.3,29.70,SSW,207,0.0,0.0,63,0.00,CLR,,0.00,WeatherDisplay:10.37,2013-02-06 09:51:00,
2013-02-06 02:52:00,30.4,19.3,29.70,SSW,207,3.5,3.5,63,0.00,CLR,,0.00,WeatherDisplay:10.37,2013-02-06 09:52:00,
2013-02-06 02:56:00,30.9,19.8,29.69,SSW,207,0.0,0.0,63,0.00,CLR,,0.00,WeatherDisplay:10.37,2013-02-06 09:56:00,
2013-02-06 02:57:00,30.9,19.8,29.69,SSW,207,0.0,0.0,63,0.00,CLR,,0.00,WeatherDisplay:10.37,2013-02-06 09:57:00,
2013-02-06 03:01:00,31.0,19.9,29.70,SSW,207,0.0,0.0,63,0.00,CLR,,0.00,WeatherDisplay:10.37,2013-02-06 10:01:00,
2013-02-06 03:02:00,31.0,19.9,29.70,SSW,207,0.0,0.0,63,0.00,CLR,,0.00,WeatherDisplay:10.37,2013-02-06 10:02:00,
2013-02-06 03:06:00,30.9,20.1,29.70,SSW,207,3.5,3.5,64,0.00,CLR,,0.00,WeatherDisplay:10.37,2013-02-06 10:06:00,
2013-02-06 03:07:00,30.9,19.8,29.70,SSW,207,3.5,3.5,63,0.00,CLR,,0.00,WeatherDisplay:10.37,2013-02-06 10:07:00,
2013-02-06 03:11:00,30.7,20.0,29.70,SSW,207,3.5,0.0,64,0.00,CLR,,0.00,WeatherDisplay:10.37,2013-02-06 10:11:00,
2013-02-06 03:12:00,30.7,20.0,29.70,SSW,207,0.0,0.0,64,0.00,CLR,,0.00,WeatherDisplay:10.37,2013-02-06 10:12:00,
2013-02-06 03:16:00,30.6,20.2,29.70,SSW,207,0.0,0.0,65,0.00,CLR,,0.00,WeatherDisplay:10.37,2013-02-06 10:16:00,
2013-02-06 03:17:00,30.6,20.2,29.70,SSW,207,0.0,0.0,65,0.00,CLR,,0.00,WeatherDisplay:10.37,2013-02-06 10:17:00,
2013-02-06 03:18:00,30.3,19.9,29.70,SSW,207,0.0,0.0,65,0.00,CLR,,0.00,WeatherDisplay:10.37,2013-02-06 10:18:00,
2013-02-06 03:21:00,30.0,20.0,29.70,SSW,207,0.0,0.0,66,0.00,CLR,,0.00,WeatherDisplay:10.37,2013-02-06 10:21:00,
2013-02-06 03:22:00,30.0,20.0,29.70,SSW,207,0.0,0.0,66,0.00,CLR,,0.00,WeatherDisplay:10.37,2013-02-06 10:22:00,
2013-02-06 03:23:00,30.0,20.0,29.69,SSW,207,0.0,0.0,66,0.00,CLR,,0.00,WeatherDisplay:10.37,2013-02-06 10:23:00,
2013-02-06 03:26:00,29.8,19.8,29.69,SSW,207,0.0,0.0,66,0.00,CLR,,0.00,WeatherDisplay:10.37,2013-02-06 10:26:00,
2013-02-06 03:27:00,29.8,19.8,29.69,SSW,207,0.0,0.0,66,0.00,CLR,,0.00,WeatherDisplay:10.37,2013-02-06 10:27:00,
2013-02-06 03:29:00,29.7,19.7,29.69,SSW,207,0.0,0.0,66,0.00,CLR,,0.00,WeatherDisplay:10.37,2013-02-06 10:29:00,
2013-02-06 03:32:00,29.5,19.9,29.69,SSW,207,0.0,0.0,67,0.00,CLR,,0.00,WeatherDisplay:10.37,2013-02-06 10:32:00,
2013-02-06 03:34:00,29.4,19.8,29.70,SSW,207,3.5,3.5,67,0.00,CLR,,0.00,WeatherDisplay:10.37,2013-02-06 10:34:00,
2013-02-06 03:37:00,29.3,19.7,29.70,SSW,207,0.0,0.0,67,0.00,CLR,,0.00,WeatherDisplay:10.37,2013-02-06 10:37:00,
2013-02-06 03:38:00,29.3,19.7,29.70,SSW,207,0.0,0.0,67,0.00,CLR,,0.00,WeatherDisplay:10.37,2013-02-06 10:38:00,
2013-02-06 03:39:00,29.3,20.0,29.70,SSW,207,1.1,1.1,68,0.00,CLR,,0.00,WeatherDisplay:10.37,2013-02-06 10:39:00,
2013-02-06 03:42:00,29.1,19.8,29.71,SSW,207,1.1,0.0,68,0.00,CLR,,0.00,WeatherDisplay:10.37,2013-02-06 10:42:00,
2013-02-06 03:43:00,29.1,19.8,29.70,SSW,207,0.0,0.0,68,0.00,CLR,,0.00,WeatherDisplay:10.37,2013-02-06 10:43:00,
2013-02-06 03:45:00,29.1,19.8,29.70,SSW,207,0.0,0.0,68,0.00,CLR,,0.00,WeatherDisplay:10.37,2013-02-06 10:45:00,
2013-02-06 03:47:00,29.3,20.0,29.70,SW,216,6.0,6.0,68,0.00,CLR,,0.00,WeatherDisplay:10.37,2013-02-06 10:47:00,
2013-02-06 03:48:00,29.1,19.8,29.71,SW,228,9.2,9.2,68,0.00,CLR,,0.00,WeatherDisplay:10.37,2013-02-06 10:48:00,
2013-02-06 03:50:00,29.1,19.8,29.71,SW,235,1.1,1.1,68,0.00,CLR,,0.00,WeatherDisplay:10.37,2013-02-06 10:50:00,
2013-02-06 03:51:00,29.1,19.8,29.71,SW,235,1.1,1.1,68,0.00,CLR,,0.00,WeatherDisplay:10.37,2013-02-06 10:51:00,
2013-02-06 03:52:00,29.1,19.8,29.71,SW,235,0.0,0.0,68,0.00,CLR,,0.00,WeatherDisplay:10.37,2013-02-06 10:52:00,
2013-02-06 03:53:00,29.1,20.2,29.70,SW,235,2.3,2.3,69,0.00,CLR,,0.00,WeatherDisplay:10.37,2013-02-06 10:53:00,
2013-02-06 03:55:00,29.1,20.2,29.70,SW,234,3.0,3.0,69,0.00,CLR,,0.00,WeatherDisplay:10.37,2013-02-06 10:55:00,
2013-02-06 03:56:00,29.0,19.8,29.71,SSW,209,6.0,6.0,68,0.00,CLR,,0.00,WeatherDisplay:10.37,2013-02-06 10:56:00,
2013-02-06 03:57:00,29.0,20.1,29.71,SW,227,5.8,5.8,69,0.00,CLR,,0.00,WeatherDisplay:10.37,2013-02-06 10:57:00,
2013-02-06 03:59:00,28.8,19.9,29.71,SW,226,4.6,4.6,69,0.00,CLR,,0.00,WeatherDisplay:10.37,2013-02-06 10:59:00,
2013-02-06 04:00:00,28.8,19.9,29.71,SW,226,3.5,3.5,69,0.00,CLR,,0.00,WeatherDisplay:10.37,2013-02-06 11:00:00,
2013-02-06 04:01:00,28.7,19.8,29.71,SW,226,0.0,0.0,69,0.00,CLR,,0.00,WeatherDisplay:10.37,2013-02-06 11:01:00,
2013-02-06 04:02:00,28.5,19.6,29.71,SW,226,1.0,1.0,69,0.00,CLR,,0.00,WeatherDisplay:10.37,2013-02-06 11:02:00,
2013-02-06 04:04:00,28.4,19.5,29.73,SW,226,3.5,3.5,69,0.00,CLR,,0.00,WeatherDisplay:10.37,2013-02-06 11:04:00,
2013-02-06 04:05:00,28.2,19.3,29.73,SW,226,2.3,0.0,69,0.00,CLR,,0.00,WeatherDisplay:10.37,2013-02-06 11:05:00,
2013-02-06 04:06:00,28.2,19.7,29.73,SW,226,0.0,0.0,70,0.00,CLR,,0.00,WeatherDisplay:10.37,2013-02-06 11:06:00,
2013-02-06 04:08:00,28.1,19.6,29.73,SW,223,1.1,0.0,70,0.00,CLR,,0.00,WeatherDisplay:10.37,2013-02-06 11:08:00,
2013-02-06 04:09:00,27.9,19.4,29.73,SW,221,1.1,1.1,70,0.00,CLR,,0.00,WeatherDisplay:10.37,2013-02-06 11:09:00,
2013-02-06 04:10:00,27.9,19.4,29.73,SW,221,2.3,2.3,70,0.00,CLR,,0.00,WeatherDisplay:10.37,2013-02-06 11:10:00,
2013-02-06 04:11:00,27.9,19.4,29.73,SW,221,2.3,2.3,70,0.00,CLR,,0.00,WeatherDisplay:10.37,2013-02-06 11:11:00,
2013-02-06 04:13:00,27.8,19.6,29.73,SW,221,0.0,0.0,71,0.00,CLR,,0.00,WeatherDisplay:10.37,2013-02-06 11:13:00,
2013-02-06 04:14:00,27.8,19.6,29.73,SW,221,3.5,3.5,71,0.00,CLR,,0.00,WeatherDisplay:10.37,2013-02-06 11:14:00,
2013-02-06 04:16:00,27.8,19.6,29.73,SW,221,2.3,2.3,71,0.00,CLR,,0.00,WeatherDisplay:10.37,2013-02-06 11:16:00,
2013-02-06 04:18:00,27.6,19.1,29.73,SW,221,0.0,0.0,70,0.00,CLR,,0.00,WeatherDisplay:10.37,2013-02-06 11:18:00,
2013-02-06 04:20:00,27.5,19.3,29.73,SW,221,4.0,4.0,71,0.00,CLR,,0.00,WeatherDisplay:10.37,2013-02-06 11:20:00,
2013-02-06 04:21:00,27.5,19.3,29.73,SW,221,3.5,3.5,71,0.00,CLR,,0.00,WeatherDisplay:10.37,2013-02-06 11:21:00,
2013-02-06 04:23:00,27.5,19.3,29.73,SW,221,0.0,0.0,71,0.00,CLR,,0.00,WeatherDisplay:10.37,2013-02-06 11:23:00,
2013-02-06 04:25:00,27.6,19.4,29.74,SW,221,0.0,0.0,71,0.00,CLR,,0.00,WeatherDisplay:10.37,2013-02-06 11:25:00,
2013-02-06 04:26:00,27.6,19.4,29.74,SW,221,0.0,0.0,71,0.00,CLR,,0.00,WeatherDisplay:10.37,2013-02-06 11:26:00,
2013-02-06 04:29:00,27.6,19.4,29.74,SW,221,3.5,3.5,71,0.00,CLR,,0.00,WeatherDisplay:10.37,2013-02-06 11:29:00,
2013-02-06 04:31:00,27.5,19.7,29.74,SW,221,3.5,3.5,72,0.00,CLR,,0.00,WeatherDisplay:10.37,2013-02-06 11:31:00,
2013-02-06 04:34:00,27.6,19.8,29.74,SW,221,1.1,1.1,72,0.00,CLR,,0.00,WeatherDisplay:10.37,2013-02-06 11:34:00,
2013-02-06 04:36:00,27.6,19.8,29.74,SW,221,0.0,0.0,72,0.00,CLR,,0.00,WeatherDisplay:10.37,2013-02-06 11:36:00,
2013-02-06 04:39:00,27.6,19.8,29.74,SW,221,0.0,0.0,72,0.00,CLR,,0.00,WeatherDisplay:10.37,2013-02-06 11:39:00,
2013-02-06 04:41:00,27.6,19.8,29.73,SW,221,3.5,3.5,72,0.00,CLR,,0.00,WeatherDisplay:10.37,2013-02-06 11:41:00,
2013-02-06 04:44:00,27.8,19.9,29.73,SW,221,0.0,0.0,72,0.00,CLR,,0.00,WeatherDisplay:10.37,2013-02-06 11:44:00,
2013-02-06 04:46:00,27.9,20.0,29.73,SW,221,0.0,0.0,72,0.00,CLR,,0.00,WeatherDisplay:10.37,2013-02-06 11:46:00,
2013-02-06 04:47:00,27.9,20.0,29.73,SW,221,1.0,0.0,72,0.00,CLR,,0.00,WeatherDisplay:10.37,2013-02-06 11:47:00,
2013-02-06 04:49:00,27.9,20.0,29.74,SW,221,0.0,0.0,72,0.00,CLR,,0.00,WeatherDisplay:10.37,2013-02-06 11:49:00,
2013-02-06 04:51:00,27.9,20.0,29.74,SW,221,0.0,0.0,72,0.00,CLR,,0.00,WeatherDisplay:10.37,2013-02-06 11:51:00,
2013-02-06 04:52:00,27.9,20.0,29.74,SW,221,0.0,0.0,72,0.00,CLR,,0.00,WeatherDisplay:10.37,2013-02-06 11:52:00,
2013-02-06 04:54:00,27.9,19.7,29.74,SW,221,0.0,0.0,71,0.00,CLR,,0.00,WeatherDisplay:10.37,2013-02-06 11:54:00,
2013-02-06 04:56:00,27.9,19.7,29.74,SW,221,0.0,0.0,71,0.00,CLR,,0.00,WeatherDisplay:10.37,2013-02-06 11:56:00,
2013-02-06 04:57:00,27.9,19.7,29.74,SW,221,0.0,0.0,71,0.00,CLR,,0.00,WeatherDisplay:10.37,2013-02-06 11:57:00,
2013-02-06 05:00:00,27.9,19.7,29.74,SW,221,0.0,0.0,71,0.00,CLR,,0.00,WeatherDisplay:10.37,2013-02-06 12:00:00,
2013-02-06 05:02:00,27.9,19.7,29.79,SW,221,0.0,0.0,71,0.00,CLR,,0.00,WeatherDisplay:10.37,2013-02-06 12:02:00,
2013-02-06 05:05:00,27.8,19.6,29.79,SW,221,0.0,0.0,71,0.00,CLR,,0.00,WeatherDisplay:10.37,2013-02-06 12:05:00,
2013-02-06 05:07:00,27.8,19.6,29.79,SW,221,0.0,0.0,71,0.00,CLR,,0.00,WeatherDisplay:10.37,2013-02-06 12:07:00,
2013-02-06 05:10:00,27.6,19.8,29.79,SW,221,0.0,0.0,72,0.00,CLR,,0.00,WeatherDisplay:10.37,2013-02-06 12:10:00,
2013-02-06 05:12:00,27.6,19.4,29.79,SW,221,0.0,0.0,71,0.00,CLR,,0.00,WeatherDisplay:10.37,2013-02-06 12:12:00,
2013-02-06 05:15:00,27.6,19.4,29.79,SW,221,0.0,0.0,71,0.00,CLR,,0.00,WeatherDisplay:10.37,2013-02-06 12:15:00,
2013-02-06 05:17:00,27.6,19.4,29.79,SW,221,0.0,0.0,71,0.00,CLR,,0.00,WeatherDisplay:10.37,2013-02-06 12:17:00,
2013-02-06 05:20:00,27.6,19.4,29.79,SW,221,2.3,2.3,71,0.00,CLR,,0.00,WeatherDisplay:10.37,2013-02-06 12:20:00,
2013-02-06 05:22:00,27.6,19.4,29.79,SW,221,0.0,0.0,71,0.00,CLR,,0.00,WeatherDisplay:10.37,2013-02-06 12:22:00,
2013-02-06 05:23:00,27.6,19.4,29.79,SW,221,0.0,0.0,71,0.00,CLR,,0.00,WeatherDisplay:10.37,2013-02-06 12:23:00,
2013-02-06 05:25:00,27.5,19.3,29.79,SW,221,0.0,0.0,71,0.00,CLR,,0.00,WeatherDisplay:10.37,2013-02-06 12:25:00,
2013-02-06 05:27:00,27.5,19.3,29.79,SW,221,0.0,0.0,71,0.00,CLR,,0.00,WeatherDisplay:10.37,2013-02-06 12:27:00,
2013-02-06 05:28:00,27.5,19.3,29.79,SW,221,0.0,0.0,71,0.00,CLR,,0.00,WeatherDisplay:10.37,2013-02-06 12:28:00,
2013-02-06 05:30:00,27.5,19.3,29.79,SW,221,0.0,0.0,71,0.00,CLR,,0.00,WeatherDisplay:10.37,2013-02-06 12:30:00,
2013-02-06 05:32:00,27.5,19.7,29.78,SW,221,1.1,1.1,72,0.00,CLR,,0.00,WeatherDisplay:10.37,2013-02-06 12:32:00,
2013-02-06 05:33:00,27.5,19.7,29.78,SW,221,1.1,1.1,72,0.00,CLR,,0.00,WeatherDisplay:10.37,2013-02-06 12:33:00,
2013-02-06 05:35:00,27.6,19.8,29.78,SW,221,0.0,0.0,72,0.00,CLR,,0.00,WeatherDisplay:10.37,2013-02-06 12:35:00,
2013-02-06 05:37:00,27.6,19.4,29.79,SW,221,0.0,0.0,71,0.00,CLR,,0.00,WeatherDisplay:10.37,2013-02-06 12:37:00,
2013-02-06 05:38:00,27.6,19.4,29.79,SW,221,0.0,0.0,71,0.00,CLR,,0.00,WeatherDisplay:10.37,2013-02-06 12:38:00,
2013-02-06 05:40:00,27.6,19.4,29.79,SW,221,0.0,0.0,71,0.00,CLR,,0.00,WeatherDisplay:10.37,2013-02-06 12:40:00,
2013-02-06 05:43:00,27.8,19.9,29.79,SW,221,0.0,0.0,72,0.00,CLR,,0.00,WeatherDisplay:10.37,2013-02-06 12:43:00,
2013-02-06 05:45:00,27.8,19.6,29.79,SW,221,3.5,3.5,71,0.00,CLR,,0.00,WeatherDisplay:10.37,2013-02-06 12:45:00,
2013-02-06 05:48:00,27.9,19.4,29.79,SW,228,5.8,5.8,70,0.00,CLR,,0.00,WeatherDisplay:10.37,2013-02-06 12:48:00,
2013-02-06 05:51:00,27.9,19.4,29.79,WSW,252,4.6,4.6,70,0.00,CLR,,0.00,WeatherDisplay:10.37,2013-02-06 12:51:00,
2013-02-06 05:53:00,27.9,19.4,29.79,WSW,252,2.3,2.3,70,0.00,CLR,,0.00,WeatherDisplay:10.37,2013-02-06 12:53:00,
2013-02-06 05:54:00,27.9,19.4,29.79,WSW,252,2.3,2.3,70,0.00,CLR,,0.00,WeatherDisplay:10.37,2013-02-06 12:54:00,
2013-02-06 05:56:00,27.9,19.4,29.79,WSW,252,3.5,0.0,70,0.00,CLR,,0.00,WeatherDisplay:10.37,2013-02-06 12:56:00,
2013-02-06 05:58:00,27.8,19.3,29.79,WSW,252,3.5,3.5,70,0.00,CLR,,0.00,WeatherDisplay:10.37,2013-02-06 12:58:00,
2013-02-06 05:59:00,27.8,19.3,29.79,WSW,244,5.0,5.0,70,0.00,CLR,,0.00,WeatherDisplay:10.37,2013-02-06 12:59:00,
2013-02-06 06:01:00,27.8,19.3,29.82,WSW,239,1.1,1.1,70,0.00,CLR,,0.00,WeatherDisplay:10.37,2013-02-06 13:01:00,
2013-02-06 06:03:00,27.8,19.3,29.82,SW,216,5.8,5.8,70,0.00,CLR,,0.00,WeatherDisplay:10.37,2013-02-06 13:03:00,
2013-02-06 06:04:00,27.8,19.3,29.82,SW,216,1.1,1.1,70,0.00,CLR,,0.00,WeatherDisplay:10.37,2013-02-06 13:04:00,
2013-02-06 06:06:00,27.8,19.6,29.81,SSW,204,6.0,6.0,71,0.00,CLR,,0.00,WeatherDisplay:10.37,2013-02-06 13:06:00,
2013-02-06 06:08:00,27.6,19.1,29.82,SW,233,6.9,6.9,70,0.00,CLR,,0.00,WeatherDisplay:10.37,2013-02-06 13:08:00,
2013-02-06 06:09:00,27.6,19.1,29.82,SW,233,5.8,5.8,70,0.00,CLR,,0.00,WeatherDisplay:10.37,2013-02-06 13:09:00,
2013-02-06 06:11:00,27.5,19.3,29.81,SW,214,4.6,4.6,71,0.00,CLR,,0.00,WeatherDisplay:10.37,2013-02-06 13:11:00,
2013-02-06 06:14:00,27.3,19.1,29.82,SSW,208,4.0,4.0,71,0.00,CLR,,0.00,WeatherDisplay:10.37,2013-02-06 13:14:00,
2013-02-06 06:16:00,27.2,19.4,29.82,SW,215,6.0,6.0,72,0.00,CLR,,0.00,WeatherDisplay:10.37,2013-02-06 13:16:00,
2013-02-06 06:19:00,27.2,19.4,29.82,SW,235,4.6,4.6,72,0.00,CLR,,0.00,WeatherDisplay:10.37,2013-02-06 13:19:00,
2013-02-06 06:20:00,27.0,19.2,29.82,SW,235,3.5,3.5,72,0.00,CLR,,0.00,WeatherDisplay:10.37,2013-02-06 13:20:00,
2013-02-06 06:21:00,27.0,19.2,29.83,SSW,213,5.8,5.8,72,0.00,CLR,,0.00,WeatherDisplay:10.37,2013-02-06 13:21:00,
2013-02-06 06:24:00,27.0,19.2,29.82,SSW,213,5.8,5.8,72,0.00,CLR,,0.00,WeatherDisplay:10.37,2013-02-06 13:24:00,
2013-02-06 06:25:00,27.0,19.2,29.82,SW,216,5.8,5.8,72,0.00,CLR,,0.00,WeatherDisplay:10.37,2013-02-06 13:25:00,
2013-02-06 06:27:00,26.9,19.1,29.82,SW,219,5.8,5.8,72,0.00,CLR,,0.00,WeatherDisplay:10.37,2013-02-06 13:27:00,
2013-02-06 06:29:00,26.9,19.1,29.82,SSW,211,4.6,4.6,72,0.00,CLR,,0.00,WeatherDisplay:10.37,2013-02-06 13:29:00,
2013-02-06 06:30:00,26.9,19.1,29.82,SW,224,4.6,4.6,72,0.00,CLR,,0.00,WeatherDisplay:10.37,2013-02-06 13:30:00,
2013-02-06 06:32:00,26.9,19.1,29.82,SW,218,4.6,4.6,72,0.00,CLR,,0.00,WeatherDisplay:10.37,2013-02-06 13:32:00,
2013-02-06 06:34:00,26.7,18.9,29.82,SW,219,3.5,3.5,72,0.00,CLR,,0.00,WeatherDisplay:10.37,2013-02-06 13:34:00,
2013-02-06 06:35:00,26.7,18.9,29.82,SW,219,0.0,0.0,72,0.00,CLR,,0.00,WeatherDisplay:10.37,2013-02-06 13:35:00,
2013-02-06 06:38:00,26.7,18.9,29.82,SW,219,1.1,0.0,72,0.00,CLR,,0.00,WeatherDisplay:10.37,2013-02-06 13:38:00,
2013-02-06 06:39:00,26.7,18.9,29.82,SW,219,3.5,3.5,72,0.00,CLR,,0.00,WeatherDisplay:10.37,2013-02-06 13:39:00,
2013-02-06 06:41:00,26.7,18.9,29.82,SW,219,3.5,0.0,72,0.00,CLR,,0.00,WeatherDisplay:10.37,2013-02-06 13:41:00,
2013-02-06 06:43:00,26.7,18.9,29.82,SW,219,1.1,1.1,72,0.00,CLR,,0.00,WeatherDisplay:10.37,2013-02-06 13:43:00,
2013-02-06 06:44:00,26.7,18.9,29.82,SSW,213,4.6,4.6,72,0.00,CLR,,0.00,WeatherDisplay:10.37,2013-02-06 13:44:00,
2013-02-06 06:46:00,26.7,18.9,29.82,SW,226,4.6,4.6,72,0.00,CLR,,0.00,WeatherDisplay:10.37,2013-02-06 13:46:00,
2013-02-06 06:48:00,26.7,18.6,29.82,SW,227,3.5,3.5,71,0.00,CLR,,0.00,WeatherDisplay:10.37,2013-02-06 13:48:00,
2013-02-06 06:49:00,26.7,18.6,29.82,SW,227,1.1,0.0,71,0.00,CLR,,0.00,WeatherDisplay:10.37,2013-02-06 13:49:00,
2013-02-06 06:50:00,26.7,18.6,29.82,SW,227,1.1,0.0,71,0.00,CLR,,0.00,WeatherDisplay:10.37,2013-02-06 13:50:00,
2013-02-06 06:51:00,26.7,18.6,29.82,SW,227,0.0,0.0,71,0.00,CLR,,0.00,WeatherDisplay:10.37,2013-02-06 13:51:00,
2013-02-06 06:53:00,26.7,18.9,29.82,SSW,209,6.0,6.0,72,0.00,CLR,,0.00,WeatherDisplay:10.37,2013-02-06 13:53:00,
2013-02-06 06:55:00,26.7,18.6,29.82,SW,214,7.0,7.0,71,0.00,CLR,,0.00,WeatherDisplay:10.37,2013-02-06 13:55:00,
2013-02-06 06:56:00,26.7,18.6,29.82,SW,221,7.0,7.0,71,0.00,CLR,,0.00,WeatherDisplay:10.37,2013-02-06 13:56:00,
2013-02-06 06:58:00,26.7,18.6,29.82,WSW,238,5.8,5.8,71,0.00,CLR,,0.00,WeatherDisplay:10.37,2013-02-06 13:58:00,
2013-02-06 07:00:00,26.6,18.5,29.83,SW,227,6.0,6.0,71,0.00,CLR,,0.00,WeatherDisplay:10.37,2013-02-06 14:00:00,
2013-02-06 07:01:00,26.6,18.5,29.81,SW,223,7.0,7.0,71,0.00,CLR,,0.00,WeatherDisplay:10.37,2013-02-06 14:01:00,
2013-02-06 07:04:00,26.6,18.5,29.82,SW,231,8.1,8.1,71,0.00,CLR,,0.00,WeatherDisplay:10.37,2013-02-06 14:04:00,
2013-02-06 07:05:00,26.6,18.5,29.82,SW,236,4.6,4.6,71,0.00,CLR,,0.00,WeatherDisplay:10.37,2013-02-06 14:05:00,
2013-02-06 07:06:00,26.6,18.5,29.82,WSW,239,1.1,0.0,71,0.00,CLR,,0.00,WeatherDisplay:10.37,2013-02-06 14:06:00,
2013-02-06 07:09:00,26.6,18.8,29.82,SW,224,6.0,6.0,72,0.00,CLR,,0.00,WeatherDisplay:10.37,2013-02-06 14:09:00,
2013-02-06 07:10:00,26.6,18.8,29.82,SW,221,5.8,5.8,72,0.00,CLR,,0.00,WeatherDisplay:10.37,2013-02-06 14:10:00,
2013-02-06 07:11:00,26.6,18.5,29.82,SW,219,7.0,7.0,71,0.00,CLR,,0.00,WeatherDisplay:10.37,2013-02-06 14:11:00,
2013-02-06 07:14:00,26.7,18.6,29.82,SSW,210,6.9,6.9,71,0.00,CLR,,0.00,WeatherDisplay:10.37,2013-02-06 14:14:00,
2013-02-06 07:15:00,26.7,18.6,29.82,SW,228,6.9,6.9,71,0.00,CLR,,0.00,WeatherDisplay:10.37,2013-02-06 14:15:00,
2013-02-06 07:16:00,26.9,19.1,29.82,SW,217,6.9,6.9,72,0.00,CLR,,0.00,WeatherDisplay:10.37,2013-02-06 14:16:00,
2013-02-06 07:19:00,26.9,19.1,29.82,SW,223,1.1,1.1,72,0.00,CLR,,0.00,WeatherDisplay:10.37,2013-02-06 14:19:00,
2013-02-06 07:20:00,26.9,19.1,29.82,SW,219,5.8,5.8,72,0.00,CLR,,0.00,WeatherDisplay:10.37,2013-02-06 14:20:00,
2013-02-06 07:21:00,26.9,19.1,29.82,SW,220,6.0,6.0,72,0.00,CLR,,0.00,WeatherDisplay:10.37,2013-02-06 14:21:00,
2013-02-06 07:22:00,26.9,19.1,29.82,SSW,204,5.8,5.8,72,0.00,CLR,,0.00,WeatherDisplay:10.37,2013-02-06 14:22:00,
2013-02-06 07:24:00,27.0,19.2,29.82,SSW,209,3.0,3.0,72,0.00,CLR,,0.00,WeatherDisplay:10.37,2013-02-06 14:24:00,
2013-02-06 07:25:00,27.0,19.2,29.82,WSW,239,4.6,4.6,72,0.00,CLR,,0.00,WeatherDisplay:10.37,2013-02-06 14:25:00,
2013-02-06 07:26:00,27.0,19.2,29.82,WSW,243,5.0,5.0,72,0.00,CLR,,0.00,WeatherDisplay:10.37,2013-02-06 14:26:00,
2013-02-06 07:27:00,27.0,19.2,29.82,West,260,6.9,6.9,72,0.00,CLR,,0.00,WeatherDisplay:10.37,2013-02-06 14:27:00,
2013-02-06 07:29:00,27.2,19.4,29.82,SSW,211,5.8,0.0,72,0.00,CLR,,0.00,WeatherDisplay:10.37,2013-02-06 14:29:00,
2013-02-06 07:30:00,27.3,19.5,29.82,SW,214,0.0,0.0,72,0.00,CLR,,0.00,WeatherDisplay:10.37,2013-02-06 14:30:00,
2013-02-06 07:31:00,27.3,19.5,29.82,SW,215,0.0,0.0,72,0.00,CLR,,0.00,WeatherDisplay:10.37,2013-02-06 14:31:00,
2013-02-06 07:32:00,27.5,19.7,29.82,SSW,210,0.0,0.0,72,0.00,CLR,,0.00,WeatherDisplay:10.37,2013-02-06 14:32:00,
2013-02-06 07:35:00,27.6,19.8,29.82,SSW,211,5.8,5.8,72,0.00,CLR,,0.00,WeatherDisplay:10.37,2013-02-06 14:35:00,
2013-02-06 07:36:00,27.6,19.8,29.82,SSW,211,1.1,0.0,72,0.00,CLR,,0.00,WeatherDisplay:10.37,2013-02-06 14:36:00,
2013-02-06 07:37:00,27.8,19.9,29.82,SSW,211,0.0,0.0,72,0.00,CLR,,0.00,WeatherDisplay:10.37,2013-02-06 14:37:00,
2013-02-06 07:40:00,28.1,19.9,29.82,SSW,200,3.5,3.5,71,0.00,CLR,,0.00,WeatherDisplay:10.37,2013-02-06 14:40:00,
2013-02-06 07:41:00,28.1,19.9,29.82,SW,214,3.5,3.5,71,0.00,CLR,,0.00,WeatherDisplay:10.37,2013-02-06 14:41:00,
2013-02-06 07:42:00,28.2,20.0,29.82,SW,214,0.0,0.0,71,0.00,CLR,,0.00,WeatherDisplay:10.37,2013-02-06 14:42:00,
2013-02-06 07:45:00,28.2,20.3,29.82,SW,214,0.0,0.0,72,0.00,CLR,,0.00,WeatherDisplay:10.37,2013-02-06 14:45:00,
2013-02-06 07:46:00,28.2,20.3,29.82,SW,214,2.3,2.3,72,0.00,CLR,,0.00,WeatherDisplay:10.37,2013-02-06 14:46:00,
2013-02-06 07:47:00,28.4,20.5,29.82,SW,214,3.5,3.5,72,0.00,CLR,,0.00,WeatherDisplay:10.37,2013-02-06 14:47:00,
2013-02-06 07:50:00,28.4,20.5,29.82,SW,214,0.0,0.0,72,0.00,CLR,,0.00,WeatherDisplay:10.37,2013-02-06 14:50:00,
2013-02-06 07:51:00,28.5,20.6,29.82,SW,229,3.0,3.0,72,0.00,CLR,,0.00,WeatherDisplay:10.37,2013-02-06 14:51:00,
2013-02-06 07:52:00,28.5,20.6,29.81,SSW,211,6.9,6.9,72,0.00,CLR,,0.00,WeatherDisplay:10.37,2013-02-06 14:52:00,
2013-02-06 07:55:00,29.0,21.1,29.81,SSW,209,5.8,5.8,72,0.00,CLR,,0.00,WeatherDisplay:10.37,2013-02-06 14:55:00,
2013-02-06 07:56:00,29.0,21.1,29.81,SSW,202,5.8,5.8,72,0.00,CLR,,0.00,WeatherDisplay:10.37,2013-02-06 14:56:00,
2013-02-06 07:57:00,29.1,21.2,29.81,South,183,3.5,3.5,72,0.00,CLR,,0.00,WeatherDisplay:10.37,2013-02-06 14:57:00,
2013-02-06 08:00:00,29.8,21.5,29.82,SW,233,3.0,3.0,71,0.00,CLR,,0.00,WeatherDisplay:10.37,2013-02-06 15:00:00,
2013-02-06 08:01:00,29.8,21.5,29.82,SW,228,4.6,4.6,71,0.00,CLR,,0.00,WeatherDisplay:10.37,2013-02-06 15:01:00,
2013-02-06 08:02:00,30.0,21.4,29.82,WSW,242,3.5,3.5,70,0.00,CLR,,0.00,WeatherDisplay:10.37,2013-02-06 15:02:00,
2013-02-06 08:05:00,30.6,21.6,29.81,SSW,198,5.8,5.8,69,0.00,CLR,,0.00,WeatherDisplay:10.37,2013-02-06 15:05:00,
2013-02-06 08:06:00,30.7,21.7,29.81,SSW,198,1.1,0.0,69,0.00,CLR,,0.00,WeatherDisplay:10.37,2013-02-06 15:06:00,
2013-02-06 08:07:00,30.7,22.1,29.81,SSW,213,4.6,4.6,70,0.00,CLR,,0.00,WeatherDisplay:10.37,2013-02-06 15:07:00,
2013-02-06 08:11:00,31.2,21.9,29.82,SW,218,6.9,6.9,68,0.00,CLR,,0.00,WeatherDisplay:10.37,2013-02-06 15:11:00,
2013-02-06 08:12:00,31.5,21.8,29.81,SSW,203,9.2,9.2,67,0.00,CLR,,0.00,WeatherDisplay:10.37,2013-02-06 15:12:00,
2013-02-06 08:13:00,31.6,21.9,29.80,South,174,6.9,6.9,67,0.00,CLR,,0.00,WeatherDisplay:10.37,2013-02-06 15:13:00,
2013-02-06 08:16:00,32.2,22.1,29.80,SW,226,6.9,6.9,66,0.00,CLR,,0.00,WeatherDisplay:10.37,2013-02-06 15:16:00,
2013-02-06 08:17:00,32.5,22.4,29.80,SSW,199,9.2,9.2,66,0.00,CLR,,0.00,WeatherDisplay:10.37,2013-02-06 15:17:00,
2013-02-06 08:18:00,32.7,22.2,29.80,SW,217,4.0,4.0,65,0.00,CLR,,0.00,WeatherDisplay:10.37,2013-02-06 15:18:00,
2013-02-06 08:21:00,33.2,22.3,29.80,SSW,202,9.2,9.2,64,0.00,CLR,,0.00,WeatherDisplay:10.37,2013-02-06 15:21:00,
2013-02-06 08:22:00,33.4,22.5,29.80,SSW,209,6.9,6.9,64,0.00,CLR,,0.00,WeatherDisplay:10.37,2013-02-06 15:22:00,
2013-02-06 08:23:00,33.7,22.8,29.80,SSW,208,6.9,6.9,64,0.00,CLR,,0.00,WeatherDisplay:10.37,2013-02-06 15:23:00,
2013-02-06 08:26:00,34.3,22.6,29.79,SSW,200,11.5,11.5,62,0.00,CLR,,0.00,WeatherDisplay:10.37,2013-02-06 15:26:00,
2013-02-06 08:27:00,34.6,22.9,29.79,SW,221,11.5,11.5,62,0.00,CLR,,0.00,WeatherDisplay:10.37,2013-02-06 15:27:00,
2013-02-06 08:28:00,34.7,22.6,29.79,South,187,12.7,12.7,61,0.00,CLR,,0.00,WeatherDisplay:10.37,2013-02-06 15:28:00,
2013-02-06 08:31:00,35.2,22.3,29.79,SSW,211,11.5,11.5,59,0.00,CLR,,0.00,WeatherDisplay:10.37,2013-02-06 15:31:00,
2013-02-06 08:32:00,35.3,22.0,29.79,WSW,250,11.5,11.5,58,0.00,CLR,,0.00,WeatherDisplay:10.37,2013-02-06 15:32:00,
2013-02-06 08:33:00,35.8,22.0,29.78,SW,214,12.7,12.7,57,0.00,CLR,,0.00,WeatherDisplay:10.37,2013-02-06 15:33:00,
2013-02-06 08:36:00,36.3,21.7,29.78,SW,220,12.7,12.7,55,0.00,CLR,,0.00,WeatherDisplay:10.37,2013-02-06 15:36:00,
2013-02-06 08:37:00,36.6,21.9,29.78,SW,220,12.7,12.7,55,0.00,CLR,,0.00,WeatherDisplay:10.37,2013-02-06 15:37:00,
2013-02-06 08:38:00,36.9,21.8,29.78,SW,219,12.7,12.7,54,0.00,CLR,,0.00,WeatherDisplay:10.37,2013-02-06 15:38:00,
2013-02-06 08:41:00,37.6,21.5,29.77,WSW,258,13.8,13.8,52,0.00,CLR,,0.00,WeatherDisplay:10.37,2013-02-06 15:41:00,
2013-02-06 08:42:00,37.8,21.7,29.77,SSW,209,13.8,13.8,52,0.00,CLR,,0.00,WeatherDisplay:10.37,2013-02-06 15:42:00,
2013-02-06 08:43:00,38.0,21.9,29.77,SSW,207,11.5,11.5,52,0.00,CLR,,0.00,WeatherDisplay:10.37,2013-02-06 15:43:00,
2013-02-06 08:46:00,38.8,21.7,29.77,SW,230,13.8,13.8,50,0.00,CLR,,0.00,WeatherDisplay:10.37,2013-02-06 15:46:00,
2013-02-06 08:47:00,38.9,21.3,29.77,WSW,258,12.7,12.7,49,0.00,CLR,,0.00,WeatherDisplay:10.37,2013-02-06 15:47:00,
2013-02-06 08:48:00,39.2,21.6,29.77,SW,224,11.5,11.5,49,0.00,CLR,,0.00,WeatherDisplay:10.37,2013-02-06 15:48:00,
2013-02-06 08:51:00,39.8,22.2,29.76,WSW,246,12.7,12.7,49,0.00,CLR,,0.00,WeatherDisplay:10.37,2013-02-06 15:51:00,
2013-02-06 08:52:00,39.9,21.3,29.76,SW,228,11.5,11.5,47,0.00,CLR,,0.00,WeatherDisplay:10.37,2013-02-06 15:52:00,
2013-02-06 08:53:00,40.1,21.5,29.76,SSW,200,11.5,11.5,47,0.00,CLR,,0.00,WeatherDisplay:10.37,2013-02-06 15:53:00,
2013-02-06 08:56:00,40.6,21.4,29.76,WSW,258,11.5,11.5,46,0.00,CLR,,0.00,WeatherDisplay:10.37,2013-02-06 15:56:00,
2013-02-06 08:57:00,40.8,21.6,29.76,West,268,3.5,3.5,46,0.00,CLR,,0.00,WeatherDisplay:10.37,2013-02-06 15:57:00,
2013-02-06 08:58:00,40.9,21.7,29.76,WSW,239,4.6,4.6,46,0.00,CLR,,0.00,WeatherDisplay:10.37,2013-02-06 15:58:00,
2013-02-06 08:59:00,41.1,21.9,29.76,WSW,250,9.2,9.2,46,0.00,CLR,,0.00,WeatherDisplay:10.37,2013-02-06 15:59:00,
2013-02-06 09:01:00,41.5,22.2,29.75,SW,222,7.0,7.0,46,0.00,CLR,,0.00,WeatherDisplay:10.37,2013-02-06 16:01:00,
2013-02-06 09:02:00,41.6,21.8,29.75,SW,230,9.0,9.0,45,0.00,CLR,,0.00,WeatherDisplay:10.37,2013-02-06 16:02:00,
2013-02-06 09:03:00,41.8,22.0,29.75,SW,226,11.5,11.5,45,0.00,CLR,,0.00,WeatherDisplay:10.37,2013-02-06 16:03:00,
2013-02-06 09:04:00,41.9,22.6,29.74,SW,216,12.0,12.0,46,0.00,CLR,,0.00,WeatherDisplay:10.37,2013-02-06 16:04:00,
2013-02-06 09:07:00,42.5,21.5,29.74,WSW,258,11.5,11.5,43,0.00,CLR,,0.00,WeatherDisplay:10.37,2013-02-06 16:07:00,
2013-02-06 09:08:00,42.8,21.8,29.74,West,267,3.5,3.5,43,0.00,CLR,,0.00,WeatherDisplay:10.37,2013-02-06 16:08:00,
2013-02-06 09:09:00,43.1,21.5,29.75,WSW,252,9.2,9.2,42,0.00,CLR,,0.00,WeatherDisplay:10.37,2013-02-06 16:09:00,
2013-02-06 09:12:00,43.3,21.7,29.75,SW,234,4.6,4.6,42,0.00,CLR,,0.00,WeatherDisplay:10.37,2013-02-06 16:12:00,
2013-02-06 09:13:00,43.6,21.4,29.74,WSW,247,4.6,4.6,41,0.00,CLR,,0.00,WeatherDisplay:10.37,2013-02-06 16:13:00,
2013-02-06 09:15:00,43.9,22.3,29.74,South,188,5.8,5.8,42,0.00,CLR,,0.00,WeatherDisplay:10.37,2013-02-06 16:15:00,
2013-02-06 09:17:00,44.1,21.3,29.74,WSW,245,11.5,11.5,40,0.00,CLR,,0.00,WeatherDisplay:10.37,2013-02-06 16:17:00,
2013-02-06 09:18:00,44.3,20.9,29.73,WSW,245,5.8,5.8,39,0.00,CLR,,0.00,WeatherDisplay:10.37,2013-02-06 16:18:00,
2013-02-06 09:20:00,44.6,21.7,29.73,West,260,4.6,4.6,40,0.00,CLR,,0.00,WeatherDisplay:10.37,2013-02-06 16:20:00,
2013-02-06 09:22:00,44.9,21.4,29.73,WSW,240,11.0,11.0,39,0.00,CLR,,0.00,WeatherDisplay:10.37,2013-02-06 16:22:00,
2013-02-06 09:24:00,45.4,24.2,29.73,SSW,200,11.5,11.5,43,0.00,CLR,,0.00,WeatherDisplay:10.37,2013-02-06 16:24:00,
2013-02-06 09:25:00,45.5,21.9,29.73,SSW,195,12.7,12.7,39,0.00,CLR,,0.00,WeatherDisplay:10.37,2013-02-06 16:25:00,
2013-02-06 09:27:00,45.7,21.5,29.72,SW,218,11.5,11.5,38,0.00,CLR,,0.00,WeatherDisplay:10.37,2013-02-06 16:27:00,
2013-02-06 09:28:00,45.8,22.2,29.72,SSW,208,12.7,12.7,39,0.00,CLR,,0.00,WeatherDisplay:10.37,2013-02-06 16:28:00,
2013-02-06 09:29:00,46.0,21.8,29.72,WSW,252,12.7,12.7,38,0.00,CLR,,0.00,WeatherDisplay:10.37,2013-02-06 16:29:00,
2013-02-06 09:30:00,46.1,21.9,29.72,SSW,199,14.0,14.0,38,0.00,CLR,,0.00,WeatherDisplay:10.37,2013-02-06 16:30:00,
2013-02-06 09:32:00,46.2,22.0,29.72,SW,220,11.5,11.5,38,0.00,CLR,,0.00,WeatherDisplay:10.37,2013-02-06 16:32:00,
2013-02-06 09:33:00,46.4,22.1,29.72,West,266,12.7,12.7,38,0.00,CLR,,0.00,WeatherDisplay:10.37,2013-02-06 16:33:00,
2013-02-06 09:34:00,46.4,22.1,29.72,WSW,258,7.0,7.0,38,0.00,CLR,,0.00,WeatherDisplay:10.37,2013-02-06 16:34:00,
2013-02-06 09:35:00,46.7,21.8,29.72,WSW,247,13.8,13.8,37,0.00,CLR,,0.00,WeatherDisplay:10.37,2013-02-06 16:35:00,
2013-02-06 09:38:00,47.0,21.4,29.72,WSW,241,11.5,11.5,36,0.00,CLR,,0.00,WeatherDisplay:10.37,2013-02-06 16:38:00,
2013-02-06 09:39:00,47.1,20.8,29.72,West,260,13.8,13.8,35,0.00,CLR,,0.00,WeatherDisplay:10.37,2013-02-06 16:39:00,
2013-02-06 09:41:00,47.3,21.7,29.72,West,260,5.8,5.8,36,0.00,CLR,,0.00,WeatherDisplay:10.37,2013-02-06 16:41:00,
2013-02-06 09:43:00,47.6,21.9,29.71,West,266,6.9,6.9,36,0.00,CLR,,0.00,WeatherDisplay:10.37,2013-02-06 16:43:00,
2013-02-06 09:44:00,47.9,22.2,29.71,SSW,207,4.6,4.6,36,0.00,CLR,,0.00,WeatherDisplay:10.37,2013-02-06 16:44:00,
2013-02-06 09:46:00,48.0,22.3,29.71,West,266,5.8,5.8,36,0.00,CLR,,0.00,WeatherDisplay:10.37,2013-02-06 16:46:00,
2013-02-06 09:48:00,48.3,21.9,29.71,SW,229,12.7,12.7,35,0.00,CLR,,0.00,WeatherDisplay:10.37,2013-02-06 16:48:00,
2013-02-06 09:49:00,48.5,22.1,29.71,SW,228,10.4,10.4,35,0.00,CLR,,0.00,WeatherDisplay:10.37,2013-02-06 16:49:00,
2013-02-06 09:51:00,48.8,22.3,29.71,West,263,11.5,11.5,35,0.00,CLR,,0.00,WeatherDisplay:10.37,2013-02-06 16:51:00,
2013-02-06 09:53:00,48.9,21.7,29.71,SW,223,11.5,11.5,34,0.00,CLR,,0.00,WeatherDisplay:10.37,2013-02-06 16:53:00,
2013-02-06 09:54:00,49.1,21.2,29.71,SW,229,16.1,16.1,33,0.00,CLR,,0.00,WeatherDisplay:10.37,2013-02-06 16:54:00,
2013-02-06 09:56:00,49.2,22.0,29.71,West,265,13.8,13.8,34,0.00,CLR,,0.00,WeatherDisplay:10.37,2013-02-06 16:56:00,
2013-02-06 09:58:00,49.4,21.5,29.71,West,278,8.1,8.1,33,0.00,CLR,,0.00,WeatherDisplay:10.37,2013-02-06 16:58:00,
2013-02-06 09:59:00,49.4,22.2,29.71,West,260,9.2,9.2,34,0.00,CLR,,0.00,WeatherDisplay:10.37,2013-02-06 16:59:00,
2013-02-06 10:01:00,49.5,22.3,29.71,SW,225,3.5,3.5,34,0.00,CLR,,0.00,WeatherDisplay:10.37,2013-02-06 17:01:00,
2013-02-06 10:03:00,49.6,23.0,29.71,WSW,247,10.4,10.4,35,0.00,CLR,,0.00,WeatherDisplay:10.37,2013-02-06 17:03:00,
2013-02-06 10:04:00,49.6,21.6,29.71,SW,221,10.4,10.4,33,0.00,CLR,,0.00,WeatherDisplay:10.37,2013-02-06 17:04:00,
2013-02-06 10:06:00,49.8,22.5,29.71,WSW,249,10.4,10.4,34,0.00,CLR,,0.00,WeatherDisplay:10.37,2013-02-06 17:06:00,
2013-02-06 10:08:00,49.9,21.9,29.71,WSW,241,8.1,8.1,33,0.00,CLR,,0.00,WeatherDisplay:10.37,2013-02-06 17:08:00,
2013-02-06 10:09:00,49.9,21.9,29.71,WSW,244,8.1,8.1,33,0.00,CLR,,0.00,WeatherDisplay:10.37,2013-02-06 17:09:00,
2013-02-06 10:10:00,50.1,22.1,29.71,WNW,285,6.9,6.9,33,0.00,CLR,,0.00,WeatherDisplay:10.37,2013-02-06 17:10:00,
2013-02-06 10:11:00,50.1,22.1,29.71,WSW,252,3.5,3.5,33,0.00,CLR,,0.00,WeatherDisplay:10.37,2013-02-06 17:11:00,
2013-02-06 10:14:00,50.4,22.3,29.71,SW,235,4.6,4.6,33,0.00,CLR,,0.00,WeatherDisplay:10.37,2013-02-06 17:14:00,
2013-02-06 10:15:00,50.4,22.3,29.71,WSW,249,4.6,4.6,33,0.00,CLR,,0.00,WeatherDisplay:10.37,2013-02-06 17:15:00,
2013-02-06 10:17:00,50.5,22.4,29.70,SW,235,6.9,6.9,33,0.00,CLR,,0.00,WeatherDisplay:10.37,2013-02-06 17:17:00,
2013-02-06 10:19:00,50.7,21.9,29.70,WSW,247,4.6,4.6,32,0.00,CLR,,0.00,WeatherDisplay:10.37,2013-02-06 17:19:00,
2013-02-06 10:20:00,50.7,21.9,29.70,WSW,238,5.8,5.8,32,0.00,CLR,,0.00,WeatherDisplay:10.37,2013-02-06 17:20:00,
2013-02-06 10:22:00,50.8,21.2,29.70,SW,236,3.5,3.5,31,0.00,CLR,,0.00,WeatherDisplay:10.37,2013-02-06 17:22:00,
2013-02-06 10:24:00,51.0,21.4,29.71,WSW,237,3.5,3.5,31,0.00,CLR,,0.00,WeatherDisplay:10.37,2013-02-06 17:24:00,
2013-02-06 10:25:00,51.0,20.6,29.71,WSW,237,3.5,3.5,30,0.00,CLR,,0.00,WeatherDisplay:10.37,2013-02-06 17:25:00,
2013-02-06 10:27:00,51.0,20.6,29.71,WSW,237,2.3,2.3,30,0.00,CLR,,0.00,WeatherDisplay:10.37,2013-02-06 17:27:00,
2013-02-06 10:29:00,51.1,22.2,29.71,NW,325,3.5,3.5,32,0.00,CLR,,0.00,WeatherDisplay:10.37,2013-02-06 17:29:00,
2013-02-06 10:30:00,51.3,21.6,29.71,NNW,328,5.0,5.0,31,0.00,CLR,,0.00,WeatherDisplay:10.37,2013-02-06 17:30:00,
2013-02-06 10:32:00,51.3,21.6,29.71,NNW,327,4.6,4.6,31,0.00,CLR,,0.00,WeatherDisplay:10.37,2013-02-06 17:32:00,
2013-02-06 10:34:00,51.3,22.4,29.71,NNW,333,6.0,6.0,32,0.00,CLR,,0.00,WeatherDisplay:10.37,2013-02-06 17:34:00,
2013-02-06 10:35:00,51.1,22.2,29.71,NW,316,5.8,5.8,32,0.00,CLR,,0.00,WeatherDisplay:10.37,2013-02-06 17:35:00,
2013-02-06 10:38:00,51.1,22.2,29.71,NW,313,4.6,4.6,32,0.00,CLR,,0.00,WeatherDisplay:10.37,2013-02-06 17:38:00,
2013-02-06 10:39:00,51.1,21.5,29.71,NW,313,3.5,3.5,31,0.00,CLR,,0.00,WeatherDisplay:10.37,2013-02-06 17:39:00,
2013-02-06 10:40:00,51.1,22.2,29.71,NW,315,4.0,4.0,32,0.00,CLR,,0.00,WeatherDisplay:10.37,2013-02-06 17:40:00,
2013-02-06 10:43:00,51.1,22.2,29.71,NW,325,4.0,4.2,32,0.00,CLR,,0.00,WeatherDisplay:10.37,2013-02-06 17:43:00,
2013-02-06 10:45:00,51.0,22.1,29.71,NNW,335,6.0,6.0,32,0.00,CLR,,0.00,WeatherDisplay:10.37,2013-02-06 17:45:00,
2013-02-06 10:48:00,50.7,21.9,29.71,NNW,330,4.6,4.6,32,0.00,CLR,,0.00,WeatherDisplay:10.37,2013-02-06 17:48:00,
2013-02-06 10:50:00,50.5,22.4,29.71,NNW,330,3.0,3.0,33,0.00,CLR,,0.00,WeatherDisplay:10.37,2013-02-06 17:50:00,
2013-02-06 10:51:00,50.5,22.4,29.71,NNW,330,2.3,2.5,33,0.00,CLR,,0.00,WeatherDisplay:10.37,2013-02-06 17:51:00,
2013-02-06 10:53:00,50.4,21.6,29.72,NW,325,4.6,4.6,32,0.00,CLR,,0.00,WeatherDisplay:10.37,2013-02-06 17:53:00,
2013-02-06 10:55:00,50.4,20.9,29.72,NW,325,2.3,2.3,31,0.00,CLR,,0.00,WeatherDisplay:10.37,2013-02-06 17:55:00,
2013-02-06 10:56:00,50.4,20.9,29.72,NW,325,2.3,2.3,31,0.00,CLR,,0.00,WeatherDisplay:10.37,2013-02-06 17:56:00,
2013-02-06 10:58:00,50.2,22.2,29.72,NW,325,2.3,2.3,33,0.00,CLR,,0.00,WeatherDisplay:10.37,2013-02-06 17:58:00,
2013-02-06 11:00:00,50.2,22.2,29.75,NNW,330,4.6,4.6,33,0.00,CLR,,0.00,WeatherDisplay:10.37,2013-02-06 18:00:00,
2013-02-06 11:01:00,50.2,22.2,29.75,NNW,330,4.6,4.6,33,0.00,CLR,,0.00,WeatherDisplay:10.37,2013-02-06 18:01:00,
2013-02-06 11:04:00,50.1,22.8,29.75,North,3,4.6,4.6,34,0.00,CLR,,0.00,WeatherDisplay:10.37,2013-02-06 18:04:00,
2013-02-06 11:05:00,49.9,21.9,29.74,North,4,3.5,3.5,33,0.00,CLR,,0.00,WeatherDisplay:10.37,2013-02-06 18:05:00,
2013-02-06 11:06:00,49.9,21.9,29.74,North,4,2.3,2.3,33,0.00,CLR,,0.00,WeatherDisplay:10.37,2013-02-06 18:06:00,
2013-02-06 11:09:00,49.8,21.1,29.74,SE,141,1.1,1.1,32,0.00,CLR,,0.00,WeatherDisplay:10.37,2013-02-06 18:09:00,
2013-02-06 11:11:00,49.8,21.1,29.74,SE,141,1.1,0.0,32,0.00,CLR,,0.00,WeatherDisplay:10.37,2013-02-06 18:11:00,
2013-02-06 11:12:00,49.8,21.1,29.74,SE,141,1.0,1.0,32,0.00,CLR,,0.00,WeatherDisplay:10.37,2013-02-06 18:12:00,
2013-02-06 11:14:00,49.9,21.9,29.74,ESE,104,2.3,2.3,33,0.00,CLR,,0.00,WeatherDisplay:10.37,2013-02-06 18:14:00,
2013-02-06 11:16:00,50.1,22.1,29.73,ESE,104,2.3,2.3,33,0.00,CLR,,0.00,WeatherDisplay:10.37,2013-02-06 18:16:00,
2013-02-06 11:17:00,50.1,22.1,29.73,ESE,104,0.0,0.0,33,0.00,CLR,,0.00,WeatherDisplay:10.37,2013-02-06 18:17:00,
2013-02-06 11:19:00,50.1,22.1,29.73,ESE,104,0.0,0.0,33,0.00,CLR,,0.00,WeatherDisplay:10.37,2013-02-06 18:19:00,
2013-02-06 11:21:00,50.1,22.1,29.73,ESE,104,0.0,0.0,33,0.00,CLR,,0.00,WeatherDisplay:10.37,2013-02-06 18:21:00,
2013-02-06 11:22:00,50.1,22.8,29.73,ESE,104,2.3,2.3,34,0.00,CLR,,0.00,WeatherDisplay:10.37,2013-02-06 18:22:00,
2013-02-06 11:24:00,50.2,22.9,29.74,ESE,104,2.3,2.3,34,0.00,CLR,,0.00,WeatherDisplay:10.37,2013-02-06 18:24:00,
2013-02-06 11:26:00,50.2,22.9,29.74,ESE,104,2.3,2.3,34,0.00,CLR,,0.00,WeatherDisplay:10.37,2013-02-06 18:26:00,
2013-02-06 11:27:00,50.2,22.9,29.74,ESE,104,2.3,2.3,34,0.00,CLR,,0.00,WeatherDisplay:10.37,2013-02-06 18:27:00,
2013-02-06 11:29:00,50.2,22.9,29.73,ESE,104,3.0,3.0,34,0.00,CLR,,0.00,WeatherDisplay:10.37,2013-02-06 18:29:00,
2013-02-06 11:31:00,50.4,22.3,29.73,ESE,104,1.1,0.0,33,0.00,CLR,,0.00,WeatherDisplay:10.37,2013-02-06 18:31:00,
2013-02-06 11:32:00,50.4,22.3,29.73,ESE,104,1.1,0.0,33,0.00,CLR,,0.00,WeatherDisplay:10.37,2013-02-06 18:32:00,
2013-02-06 11:34:00,50.4,22.3,29.73,ESE,104,2.3,2.3,33,0.00,CLR,,0.00,WeatherDisplay:10.37,2013-02-06 18:34:00,
2013-02-06 11:37:00,50.4,23.7,29.73,ESE,104,0.0,0.0,35,0.00,CLR,,0.00,WeatherDisplay:10.37,2013-02-06 18:37:00,
2013-02-06 11:38:00,50.4,23.7,29.73,ESE,104,0.0,0.0,35,0.00,CLR,,0.00,WeatherDisplay:10.37,2013-02-06 18:38:00,
2013-02-06 11:39:00,50.4,23.1,29.73,ESE,104,1.1,0.0,34,0.00,CLR,,0.00,WeatherDisplay:10.37,2013-02-06 18:39:00,
2013-02-06 11:42:00,50.5,23.1,29.72,ESE,104,0.0,0.0,34,0.00,CLR,,0.00,WeatherDisplay:10.37,2013-02-06 18:42:00,
2013-02-06 11:43:00,50.5,23.8,29.72,ESE,104,1.1,0.0,35,0.00,CLR,,0.00,WeatherDisplay:10.37,2013-02-06 18:43:00,
2013-02-06 11:44:00,50.5,23.8,29.72,ESE,104,0.0,0.0,35,0.00,CLR,,0.00,WeatherDisplay:10.37,2013-02-06 18:44:00,
2013-02-06 11:47:00,50.5,23.8,29.72,ESE,104,0.0,0.0,35,0.00,CLR,,0.00,WeatherDisplay:10.37,2013-02-06 18:47:00,
2013-02-06 11:48:00,50.5,23.8,29.72,ESE,104,0.0,0.0,35,0.00,CLR,,0.00,WeatherDisplay:10.37,2013-02-06 18:48:00,
2013-02-06 11:49:00,50.5,23.8,29.72,ESE,104,0.0,0.0,35,0.00,CLR,,0.00,WeatherDisplay:10.37,2013-02-06 18:49:00,
2013-02-06 11:52:00,50.5,23.8,29.72,ESE,104,1.1,1.1,35,0.00,CLR,,0.00,WeatherDisplay:10.37,2013-02-06 18:52:00,
2013-02-06 11:53:00,50.5,24.5,29.72,ESE,104,0.0,0.0,36,0.00,CLR,,0.00,WeatherDisplay:10.37,2013-02-06 18:53:00,
2013-02-06 11:54:00,50.5,23.8,29.72,ESE,104,0.0,0.0,35,0.00,CLR,,0.00,WeatherDisplay:10.37,2013-02-06 18:54:00,
2013-02-06 11:57:00,50.5,23.8,29.72,ESE,104,2.3,2.3,35,0.00,CLR,,0.00,WeatherDisplay:10.37,2013-02-06 18:57:00,
2013-02-06 11:59:00,50.5,23.8,29.72,ESE,104,3.5,0.0,35,0.00,CLR,,0.00,WeatherDisplay:10.37,2013-02-06 18:59:00,
2013-02-06 12:02:00,50.7,24.0,29.72,ESE,104,1.1,0.0,35,0.00,CLR,,0.00,WeatherDisplay:10.37,2013-02-06 19:02:00,
2013-02-06 12:04:00,50.7,24.0,29.72,ESE,104,1.1,1.1,35,0.00,CLR,,0.00,WeatherDisplay:10.37,2013-02-06 19:04:00,
2013-02-06 12:07:00,50.7,24.0,29.72,ESE,104,0.0,0.0,35,0.00,CLR,,0.00,WeatherDisplay:10.37,2013-02-06 19:07:00,
2013-02-06 12:08:00,50.7,24.0,29.72,ESE,104,0.0,0.0,35,0.00,CLR,,0.00,WeatherDisplay:10.37,2013-02-06 19:08:00,
2013-02-06 12:09:00,50.7,24.0,29.72,ESE,104,0.0,0.0,35,0.00,CLR,,0.00,WeatherDisplay:10.37,2013-02-06 19:09:00,
2013-02-06 12:10:00,50.7,24.0,29.72,ESE,104,0.0,0.0,35,0.00,CLR,,0.00,WeatherDisplay:10.37,2013-02-06 19:10:00,
2013-02-06 12:12:00,50.7,24.0,29.72,ESE,104,2.3,2.3,35,0.00,CLR,,0.00,WeatherDisplay:10.37,2013-02-06 19:12:00,
2013-02-06 12:13:00,50.7,24.0,29.72,ESE,104,2.3,2.3,35,0.00,CLR,,0.00,WeatherDisplay:10.37,2013-02-06 19:13:00,
2013-02-06 12:14:00,50.7,24.0,29.72,ESE,104,1.1,1.1,35,0.00,CLR,,0.00,WeatherDisplay:10.37,2013-02-06 19:14:00,
2013-02-06 12:15:00,50.7,24.0,29.72,ESE,104,0.0,0.0,35,0.00,CLR,,0.00,WeatherDisplay:10.37,2013-02-06 19:15:00,
2013-02-06 12:17:00,50.7,24.0,29.72,ESE,104,2.0,2.0,35,0.00,CLR,,0.00,WeatherDisplay:10.37,2013-02-06 19:17:00,
2013-02-06 12:18:00,50.7,24.0,29.72,NE,46,3.5,3.5,35,0.00,CLR,,0.00,WeatherDisplay:10.37,2013-02-06 19:18:00,
2013-02-06 12:19:00,50.7,24.0,29.72,NE,45,3.5,3.5,35,0.00,CLR,,0.00,WeatherDisplay:10.37,2013-02-06 19:19:00,
2013-02-06 12:20:00,50.7,24.0,29.72,NE,45,2.3,2.3,35,0.00,CLR,,0.00,WeatherDisplay:10.37,2013-02-06 19:20:00,
2013-02-06 12:23:00,50.7,24.0,29.72,NNW,335,3.5,3.5,35,0.00,CLR,,0.00,WeatherDisplay:10.37,2013-02-06 19:23:00,
2013-02-06 12:24:00,50.7,24.0,29.72,NNW,335,2.3,2.3,35,0.00,CLR,,0.00,WeatherDisplay:10.37,2013-02-06 19:24:00,
2013-02-06 12:25:00,50.7,24.0,29.72,NNW,335,3.5,3.5,35,0.00,CLR,,0.00,WeatherDisplay:10.37,2013-02-06 19:25:00,
2013-02-06 12:28:00,50.7,23.3,29.72,NNW,334,2.3,2.3,34,0.00,CLR,,0.00,WeatherDisplay:10.37,2013-02-06 19:28:00,
2013-02-06 12:29:00,50.8,24.1,29.72,NNW,334,1.1,1.1,35,0.00,CLR,,0.00,WeatherDisplay:10.37,2013-02-06 19:29:00,
2013-02-06 12:30:00,50.8,24.1,29.72,NNW,334,1.1,1.1,35,0.00,CLR,,0.00,WeatherDisplay:10.37,2013-02-06 19:30:00,
2013-02-06 12:31:00,50.8,24.1,29.72,NNW,334,3.5,3.5,35,0.00,CLR,,0.00,WeatherDisplay:10.37,2013-02-06 19:31:00,
2013-02-06 12:33:00,50.8,22.7,29.72,NNW,334,1.1,1.1,33,0.00,CLR,,0.00,WeatherDisplay:10.37,2013-02-06 19:33:00,
2013-02-06 12:35:00,50.8,22.0,29.72,NNW,334,1.0,1.3,32,0.00,CLR,,0.00,WeatherDisplay:10.37,2013-02-06 19:35:00,
2013-02-06 12:36:00,50.8,22.0,29.71,NNW,335,3.5,3.5,32,0.00,CLR,,0.00,WeatherDisplay:10.37,2013-02-06 19:36:00,
2013-02-06 12:38:00,50.8,22.7,29.71,NNW,334,2.3,2.3,33,0.00,CLR,,0.00,WeatherDisplay:10.37,2013-02-06 19:38:00,
2013-02-06 12:40:00,50.8,22.0,29.71,NNW,337,3.5,3.5,32,0.00,CLR,,0.00,WeatherDisplay:10.37,2013-02-06 19:40:00,
2013-02-06 12:41:00,50.8,22.0,29.71,NNW,337,3.5,3.5,32,0.00,CLR,,0.00,WeatherDisplay:10.37,2013-02-06 19:41:00,
2013-02-06 12:43:00,50.8,21.2,29.71,North,353,4.6,4.6,31,0.00,CLR,,0.00,WeatherDisplay:10.37,2013-02-06 19:43:00,
2013-02-06 12:45:00,50.8,21.2,29.71,North,355,3.5,3.5,31,0.00,CLR,,0.00,WeatherDisplay:10.37,2013-02-06 19:45:00,
2013-02-06 12:46:00,50.8,21.2,29.71,North,355,3.5,3.5,31,0.00,CLR,,0.00,WeatherDisplay:10.37,2013-02-06 19:46:00,
2013-02-06 12:48:00,51.0,22.1,29.70,North,6,3.5,3.5,32,0.00,CLR,,0.00,WeatherDisplay:10.37,2013-02-06 19:48:00,
2013-02-06 12:50:00,51.0,19.8,29.70,North,10,4.6,4.6,29,0.00,CLR,,0.00,WeatherDisplay:10.37,2013-02-06 19:50:00,
2013-02-06 12:51:00,51.0,19.8,29.70,NNE,13,4.0,4.0,29,0.00,CLR,,0.00,WeatherDisplay:10.37,2013-02-06 19:51:00,
2013-02-06 12:53:00,51.0,19.8,29.70,NNE,19,4.6,4.6,29,0.00,CLR,,0.00,WeatherDisplay:10.37,2013-02-06 19:53:00,
2013-02-06 12:55:00,51.0,20.6,29.70,NNE,27,3.5,3.5,30,0.00,CLR,,0.00,WeatherDisplay:10.37,2013-02-06 19:55:00,
2013-02-06 12:56:00,51.0,20.6,29.70,NNE,27,2.3,2.3,30,0.00,CLR,,0.00,WeatherDisplay:10.37,2013-02-06 19:56:00,
2013-02-06 12:58:00,51.0,19.8,29.70,NE,37,3.5,3.5,29,0.00,CLR,,0.00,WeatherDisplay:10.37,2013-02-06 19:58:00,
2013-02-06 13:00:00,51.0,20.6,29.72,NE,43,4.0,4.0,30,0.00,CLR,,0.00,WeatherDisplay:10.37,2013-02-06 20:00:00,
2013-02-06 13:01:00,51.0,20.6,29.72,NE,43,3.5,3.5,30,0.00,CLR,,0.00,WeatherDisplay:10.37,2013-02-06 20:01:00,
2013-02-06 13:04:00,51.0,20.6,29.72,NE,42,3.5,3.5,30,0.00,CLR,,0.00,WeatherDisplay:10.37,2013-02-06 20:04:00,
2013-02-06 13:06:00,51.0,20.6,29.72,NE,48,2.3,2.3,30,0.00,CLR,,0.00,WeatherDisplay:10.37,2013-02-06 20:06:00,
2013-02-06 13:09:00,51.0,20.6,29.72,NE,45,3.5,3.5,30,0.00,CLR,,0.00,WeatherDisplay:10.37,2013-02-06 20:09:00,
2013-02-06 13:11:00,51.0,20.6,29.72,NE,46,3.5,3.5,30,0.00,CLR,,0.00,WeatherDisplay:10.37,2013-02-06 20:11:00,
2013-02-06 13:14:00,50.8,20.4,29.72,NE,50,3.5,3.5,30,0.00,CLR,,0.00,WeatherDisplay:10.37,2013-02-06 20:14:00,
2013-02-06 13:16:00,50.8,19.6,29.72,NE,40,3.5,3.5,29,0.00,CLR,,0.00,WeatherDisplay:10.37,2013-02-06 20:16:00,
2013-02-06 13:17:00,50.8,19.6,29.72,NE,40,3.5,3.5,29,0.00,CLR,,0.00,WeatherDisplay:10.37,2013-02-06 20:17:00,
2013-02-06 13:19:00,50.8,18.8,29.72,NNE,32,4.0,4.0,28,0.00,CLR,,0.00,WeatherDisplay:10.37,2013-02-06 20:19:00,
2013-02-06 13:21:00,50.8,20.4,29.72,NNE,32,3.5,3.5,30,0.00,CLR,,0.00,WeatherDisplay:10.37,2013-02-06 20:21:00,
2013-02-06 13:22:00,50.8,19.6,29.72,NNE,32,2.3,2.3,29,0.00,CLR,,0.00,WeatherDisplay:10.37,2013-02-06 20:22:00,
2013-02-06 13:25:00,50.8,19.6,29.72,NNE,29,3.5,3.5,29,0.00,CLR,,0.00,WeatherDisplay:10.37,2013-02-06 20:25:00,
2013-02-06 13:26:00,50.8,20.4,29.72,NE,39,2.3,2.3,30,0.00,CLR,,0.00,WeatherDisplay:10.37,2013-02-06 20:26:00,
2013-02-06 13:27:00,50.8,20.4,29.72,NE,39,2.3,2.3,30,0.00,CLR,,0.00,WeatherDisplay:10.37,2013-02-06 20:27:00,
2013-02-06 13:30:00,50.8,19.6,29.73,NE,34,3.5,3.5,29,0.00,CLR,,0.00,WeatherDisplay:10.37,2013-02-06 20:30:00,
2013-02-06 13:31:00,50.8,19.6,29.72,NNE,24,2.3,2.3,29,0.00,CLR,,0.00,WeatherDisplay:10.37,2013-02-06 20:31:00,
2013-02-06 13:32:00,50.8,19.6,29.73,NNE,24,3.5,3.5,29,0.00,CLR,,0.00,WeatherDisplay:10.37,2013-02-06 20:32:00,
2013-02-06 13:35:00,50.7,20.4,29.73,North,359,3.5,3.5,30,0.00,CLR,,0.00,WeatherDisplay:10.37,2013-02-06 20:35:00,
2013-02-06 13:36:00,50.7,20.4,29.73,North,359,3.5,3.5,30,0.00,CLR,,0.00,WeatherDisplay:10.37,2013-02-06 20:36:00,
2013-02-06 13:37:00,50.7,20.4,29.73,North,359,3.5,3.5,30,0.00,CLR,,0.00,WeatherDisplay:10.37,2013-02-06 20:37:00,
2013-02-06 13:40:00,50.7,21.9,29.73,NNW,344,3.5,3.5,32,0.00,CLR,,0.00,WeatherDisplay:10.37,2013-02-06 20:40:00,
2013-02-06 13:41:00,50.5,21.7,29.73,North,352,4.0,4.0,32,0.00,CLR,,0.00,WeatherDisplay:10.37,2013-02-06 20:41:00,
2013-02-06 13:42:00,50.5,20.9,29.73,NNE,24,4.6,4.6,31,0.00,CLR,,0.00,WeatherDisplay:10.37,2013-02-06 20:42:00,
2013-02-06 13:45:00,50.4,20.9,29.72,NE,38,5.8,5.8,31,0.00,CLR,,0.00,WeatherDisplay:10.37,2013-02-06 20:45:00,
2013-02-06 13:46:00,50.4,21.6,29.73,NE,37,4.0,4.0,32,0.00,CLR,,0.00,WeatherDisplay:10.37,2013-02-06 20:46:00,
2013-02-06 13:47:00,50.4,21.6,29.73,NE,37,4.0,4.0,32,0.00,CLR,,0.00,WeatherDisplay:10.37,2013-02-06 20:47:00,
2013-02-06 13:50:00,50.4,20.9,29.74,NE,37,2.3,2.3,31,0.00,CLR,,0.00,WeatherDisplay:10.37,2013-02-06 20:50:00,
2013-02-06 13:52:00,50.4,21.6,29.74,NE,37,3.0,3.0,32,0.00,CLR,,0.00,WeatherDisplay:10.37,2013-02-06 20:52:00,
2013-02-06 13:56:00,50.4,21.6,29.74,NNE,29,3.5,3.5,32,0.00,CLR,,0.00,WeatherDisplay:10.37,2013-02-06 20:56:00,
2013-02-06 13:57:00,50.4,20.9,29.74,NNE,29,1.1,0.0,31,0.00,CLR,,0.00,WeatherDisplay:10.37,2013-02-06 20:57:00,
2013-02-06 14:01:00,50.4,21.6,29.73,NNE,29,2.3,2.3,32,0.00,CLR,,0.00,WeatherDisplay:10.37,2013-02-06 21:01:00,
2013-02-06 14:02:00,50.4,21.6,29.73,NNE,29,0.0,0.0,32,0.00,CLR,,0.00,WeatherDisplay:10.37,2013-02-06 21:02:00,
2013-02-06 14:03:00,50.4,22.3,29.73,NNE,29,0.0,0.0,33,0.00,CLR,,0.00,WeatherDisplay:10.37,2013-02-06 21:03:00,
2013-02-06 14:06:00,50.4,23.1,29.73,NNE,24,3.5,3.5,34,0.00,CLR,,0.00,WeatherDisplay:10.37,2013-02-06 21:06:00,
2013-02-06 14:07:00,50.4,21.6,29.73,NNE,24,3.5,3.5,32,0.00,CLR,,0.00,WeatherDisplay:10.37,2013-02-06 21:07:00,
2013-02-06 14:08:00,50.4,21.6,29.73,NNE,24,0.0,0.0,32,0.00,CLR,,0.00,WeatherDisplay:10.37,2013-02-06 21:08:00,
2013-02-06 14:11:00,50.2,21.4,29.73,NNE,15,3.0,3.0,32,0.00,CLR,,0.00,WeatherDisplay:10.37,2013-02-06 21:11:00,
2013-02-06 14:12:00,50.2,22.2,29.73,North,1,3.5,3.5,33,0.00,CLR,,0.00,WeatherDisplay:10.37,2013-02-06 21:12:00,
2013-02-06 14:13:00,50.2,22.2,29.73,NNW,342,3.5,3.5,33,0.00,CLR,,0.00,WeatherDisplay:10.37,2013-02-06 21:13:00,
2013-02-06 14:16:00,50.2,20.7,29.73,NNW,332,3.5,3.5,31,0.00,CLR,,0.00,WeatherDisplay:10.37,2013-02-06 21:16:00,
2013-02-06 14:17:00,50.2,20.7,29.73,NNW,332,2.3,0.0,31,0.00,CLR,,0.00,WeatherDisplay:10.37,2013-02-06 21:17:00,
2013-02-06 14:18:00,50.2,20.7,29.73,NNW,333,3.5,3.5,31,0.00,CLR,,0.00,WeatherDisplay:10.37,2013-02-06 21:18:00,
2013-02-06 14:21:00,50.4,20.1,29.73,NNE,30,5.8,5.8,30,0.00,CLR,,0.00,WeatherDisplay:10.37,2013-02-06 21:21:00,
2013-02-06 14:22:00,50.5,20.2,29.72,NNE,33,10.0,10.0,30,0.00,CLR,,0.00,WeatherDisplay:10.37,2013-02-06 21:22:00,
2013-02-06 14:23:00,50.5,20.2,29.72,NNE,20,16.1,16.1,30,0.00,CLR,,0.00,WeatherDisplay:10.37,2013-02-06 21:23:00,
2013-02-06 14:26:00,51.1,19.1,29.72,NE,37,4.6,4.6,28,0.00,CLR,,0.00,WeatherDisplay:10.37,2013-02-06 21:26:00,
2013-02-06 14:27:00,51.3,19.3,29.72,NNE,29,4.6,4.6,28,0.00,CLR,,0.00,WeatherDisplay:10.37,2013-02-06 21:27:00,
2013-02-06 14:28:00,51.3,19.3,29.72,NNE,33,7.0,7.0,28,0.00,CLR,,0.00,WeatherDisplay:10.37,2013-02-06 21:28:00,
2013-02-06 14:32:00,51.3,19.3,29.72,North,351,3.5,3.5,28,0.00,CLR,,0.00,WeatherDisplay:10.37,2013-02-06 21:32:00,
2013-02-06 14:33:00,51.3,19.3,29.72,North,351,4.6,4.6,28,0.00,CLR,,0.00,WeatherDisplay:10.37,2013-02-06 21:33:00,
2013-02-06 14:37:00,51.6,19.5,29.72,NNW,329,5.8,5.8,28,0.00,CLR,,0.00,WeatherDisplay:10.37,2013-02-06 21:37:00,
2013-02-06 14:38:00,51.6,19.5,29.72,NNW,331,5.8,5.8,28,0.00,CLR,,0.00,WeatherDisplay:10.37,2013-02-06 21:38:00,
2013-02-06 14:39:00,51.7,19.6,29.72,NNW,341,5.0,5.0,28,0.00,CLR,,0.00,WeatherDisplay:10.37,2013-02-06 21:39:00,
2013-02-06 14:42:00,51.6,18.7,29.72,North,1,16.1,16.1,27,0.00,CLR,,0.00,WeatherDisplay:10.37,2013-02-06 21:42:00,
2013-02-06 14:43:00,51.6,18.7,29.72,NNE,22,16.1,16.1,27,0.00,CLR,,0.00,WeatherDisplay:10.37,2013-02-06 21:43:00,
2013-02-06 14:44:00,51.4,19.3,29.72,NNE,24,11.5,11.5,28,0.00,CLR,,0.00,WeatherDisplay:10.37,2013-02-06 21:44:00,
2013-02-06 14:47:00,51.1,19.1,29.72,NE,35,12.7,12.7,28,0.00,CLR,,0.00,WeatherDisplay:10.37,2013-02-06 21:47:00,
2013-02-06 14:48:00,51.1,19.1,29.72,NNE,31,10.4,10.4,28,0.00,CLR,,0.00,WeatherDisplay:10.37,2013-02-06 21:48:00,
2013-02-06 14:49:00,51.1,19.1,29.72,NE,41,10.4,10.4,28,0.00,CLR,,0.00,WeatherDisplay:10.37,2013-02-06 21:49:00,
2013-02-06 14:52:00,51.0,19.8,29.72,North,2,9.2,9.2,29,0.00,CLR,,0.00,WeatherDisplay:10.37,2013-02-06 21:52:00,
2013-02-06 14:53:00,51.0,19.8,29.72,North,8,9.2,9.2,29,0.00,CLR,,0.00,WeatherDisplay:10.37,2013-02-06 21:53:00,
2013-02-06 14:54:00,51.0,19.8,29.72,North,1,9.2,9.2,29,0.00,CLR,,0.00,WeatherDisplay:10.37,2013-02-06 21:54:00,
2013-02-06 14:57:00,50.7,21.1,29.73,NE,34,7.0,7.0,31,0.00,CLR,,0.00,WeatherDisplay:10.37,2013-02-06 21:57:00,
2013-02-06 14:58:00,50.5,20.9,29.73,NNE,17,7.0,7.0,31,0.00,CLR,,0.00,WeatherDisplay:10.37,2013-02-06 21:58:00,
2013-02-06 14:59:00,50.5,20.9,29.73,NNE,26,9.2,9.2,31,0.00,CLR,,0.00,WeatherDisplay:10.37,2013-02-06 21:59:00,
2013-02-06 15:02:00,50.4,20.9,29.75,NNE,31,10.4,10.4,31,0.00,CLR,,0.00,WeatherDisplay:10.37,2013-02-06 22:02:00,
2013-02-06 15:03:00,50.4,20.9,29.75,NNE,13,10.4,10.4,31,0.00,CLR,,0.00,WeatherDisplay:10.37,2013-02-06 22:03:00,
2013-02-06 15:04:00,50.4,20.9,29.75,NNE,29,11.0,11.0,31,0.00,CLR,,0.00,WeatherDisplay:10.37,2013-02-06 22:04:00,
2013-02-06 15:08:00,50.2,20.7,29.76,NNE,29,4.6,4.6,31,0.00,CLR,,0.00,WeatherDisplay:10.37,2013-02-06 22:08:00,
2013-02-06 15:09:00,50.2,21.4,29.76,NNE,20,4.0,4.0,32,0.00,CLR,,0.00,WeatherDisplay:10.37,2013-02-06 22:09:00,
2013-02-06 15:13:00,49.9,21.9,29.76,North,3,5.8,5.8,33,0.00,CLR,,0.00,WeatherDisplay:10.37,2013-02-06 22:13:00,
2013-02-06 15:14:00,49.8,22.5,29.76,NE,36,4.0,4.0,34,0.00,CLR,,0.00,WeatherDisplay:10.37,2013-02-06 22:14:00,
2013-02-06 15:15:00,49.8,21.8,29.76,NE,34,6.0,6.0,33,0.00,CLR,,0.00,WeatherDisplay:10.37,2013-02-06 22:15:00,
2013-02-06 15:18:00,49.6,21.6,29.76,NNE,15,10.4,10.4,33,0.00,CLR,,0.00,WeatherDisplay:10.37,2013-02-06 22:18:00,
2013-02-06 15:19:00,49.6,21.6,29.76,NNE,26,10.4,10.4,33,0.00,CLR,,0.00,WeatherDisplay:10.37,2013-02-06 22:19:00,
2013-02-06 15:20:00,49.6,22.3,29.76,NE,34,10.4,10.4,34,0.00,CLR,,0.00,WeatherDisplay:10.37,2013-02-06 22:20:00,
2013-02-06 15:23:00,49.4,22.9,29.76,NNE,33,5.8,5.8,35,0.00,CLR,,0.00,WeatherDisplay:10.37,2013-02-06 22:23:00,
2013-02-06 15:24:00,49.2,22.7,29.76,NNE,28,6.9,6.9,35,0.00,CLR,,0.00,WeatherDisplay:10.37,2013-02-06 22:24:00,
2013-02-06 15:25:00,49.2,22.7,29.76,NE,41,6.9,6.9,35,0.00,CLR,,0.00,WeatherDisplay:10.37,2013-02-06 22:25:00,
2013-02-06 15:28:00,48.8,22.3,29.76,NNE,27,9.2,9.2,35,0.00,CLR,,0.00,WeatherDisplay:10.37,2013-02-06 22:28:00,
2013-02-06 15:29:00,48.8,22.3,29.76,NNE,29,9.0,9.0,35,0.00,CLR,,0.00,WeatherDisplay:10.37,2013-02-06 22:29:00,
2013-02-06 15:30:00,48.8,22.3,29.76,NE,38,9.0,9.0,35,0.00,CLR,,0.00,WeatherDisplay:10.37,2013-02-06 22:30:00,
2013-02-06 15:33:00,48.8,22.3,29.76,ENE,58,9.2,9.2,35,0.00,CLR,,0.00,WeatherDisplay:10.37,2013-02-06 22:33:00,
2013-02-06 15:34:00,48.8,22.3,29.76,NE,51,9.0,9.0,35,0.00,CLR,,0.00,WeatherDisplay:10.37,2013-02-06 22:34:00,
2013-02-06 15:35:00,48.6,22.1,29.76,NE,43,9.2,9.2,35,0.00,CLR,,0.00,WeatherDisplay:10.37,2013-02-06 22:35:00,
2013-02-06 15:38:00,48.5,22.7,29.76,NE,40,3.5,3.5,36,0.00,CLR,,0.00,WeatherDisplay:10.37,2013-02-06 22:38:00,
2013-02-06 15:39:00,48.5,22.7,29.76,NE,37,4.6,4.6,36,0.00,CLR,,0.00,WeatherDisplay:10.37,2013-02-06 22:39:00,
2013-02-06 15:40:00,48.5,22.7,29.76,NE,42,5.8,5.8,36,0.00,CLR,,0.00,WeatherDisplay:10.37,2013-02-06 22:40:00,
2013-02-06 15:43:00,48.3,22.5,29.77,NE,43,6.9,6.9,36,0.00,CLR,,0.00,WeatherDisplay:10.37,2013-02-06 22:43:00,
2013-02-06 15:44:00,48.3,22.5,29.77,ENE,66,3.5,3.9,36,0.00,CLR,,0.00,WeatherDisplay:10.37,2013-02-06 22:44:00,
2013-02-06 15:46:00,48.3,22.5,29.77,NE,47,5.8,5.8,36,0.00,CLR,,0.00,WeatherDisplay:10.37,2013-02-06 22:46:00,
2013-02-06 15:49:00,48.3,21.9,29.78,NE,43,10.4,10.4,35,0.00,CLR,,0.00,WeatherDisplay:10.37,2013-02-06 22:49:00,
2013-02-06 15:51:00,48.3,22.5,29.78,ENE,64,6.9,6.9,36,0.00,CLR,,0.00,WeatherDisplay:10.37,2013-02-06 22:51:00,
2013-02-06 15:54:00,48.5,22.1,29.77,East,87,5.8,5.8,35,0.00,CLR,,0.00,WeatherDisplay:10.37,2013-02-06 22:54:00,
2013-02-06 15:55:00,48.5,22.1,29.78,NE,50,5.8,5.8,35,0.00,CLR,,0.00,WeatherDisplay:10.37,2013-02-06 22:55:00,
2013-02-06 15:56:00,48.5,22.1,29.78,ENE,68,4.6,4.6,35,0.00,CLR,,0.00,WeatherDisplay:10.37,2013-02-06 22:56:00,
2013-02-06 16:00:00,48.6,22.1,29.78,ENE,66,6.9,6.9,35,0.00,CLR,,0.00,WeatherDisplay:10.37,2013-02-06 23:00:00,
2013-02-06 16:01:00,48.6,22.1,29.79,East,84,6.9,6.9,35,0.00,CLR,,0.00,WeatherDisplay:10.37,2013-02-06 23:01:00,
2013-02-06 16:05:00,48.5,22.1,29.79,East,101,11.5,11.5,35,0.00,CLR,,0.00,WeatherDisplay:10.37,2013-02-06 23:05:00,
2013-02-06 16:06:00,48.5,22.1,29.79,East,99,10.4,10.4,35,0.00,CLR,,0.00,WeatherDisplay:10.37,2013-02-06 23:06:00,
2013-02-06 16:10:00,48.6,21.5,29.79,East,95,10.4,10.4,34,0.00,CLR,,0.00,WeatherDisplay:10.37,2013-02-06 23:10:00,
2013-02-06 16:11:00,48.6,21.5,29.80,East,88,5.8,5.8,34,0.00,CLR,,0.00,WeatherDisplay:10.37,2013-02-06 23:11:00,
2013-02-06 16:12:00,48.6,21.5,29.80,East,88,5.8,5.8,34,0.00,CLR,,0.00,WeatherDisplay:10.37,2013-02-06 23:12:00,
2013-02-06 16:15:00,48.5,22.1,29.80,ENE,76,10.4,10.4,35,0.00,CLR,,0.00,WeatherDisplay:10.37,2013-02-06 23:15:00,
2013-02-06 16:16:00,48.5,22.7,29.80,East,93,6.0,6.3,36,0.00,CLR,,0.00,WeatherDisplay:10.37,2013-02-06 23:16:00,
2013-02-06 16:17:00,48.5,22.7,29.80,ESE,105,10.0,10.0,36,0.00,CLR,,0.00,WeatherDisplay:10.37,2013-02-06 23:17:00,
2013-02-06 16:20:00,48.6,22.1,29.80,East,81,11.5,11.5,35,0.00,CLR,,0.00,WeatherDisplay:10.37,2013-02-06 23:20:00,
2013-02-06 16:21:00,48.6,21.5,29.80,ENE,77,9.2,9.2,34,0.00,CLR,,0.00,WeatherDisplay:10.37,2013-02-06 23:21:00,
2013-02-06 16:22:00,48.6,21.5,29.80,East,82,9.2,9.2,34,0.00,CLR,,0.00,WeatherDisplay:10.37,2013-02-06 23:22:00,
2013-02-06 16:25:00,48.6,21.5,29.81,East,83,12.7,12.7,34,0.00,CLR,,0.00,WeatherDisplay:10.37,2013-02-06 23:25:00,
2013-02-06 16:26:00,48.6,21.5,29.81,NE,51,10.4,10.4,34,0.00,CLR,,0.00,WeatherDisplay:10.37,2013-02-06 23:26:00,
2013-02-06 16:27:00,48.5,21.4,29.81,NE,46,10.4,10.4,34,0.00,CLR,,0.00,WeatherDisplay:10.37,2013-02-06 23:27:00,
2013-02-06 16:30:00,48.3,21.2,29.81,ENE,74,11.5,11.5,34,0.00,CLR,,0.00,WeatherDisplay:10.37,2013-02-06 23:30:00,
2013-02-06 16:31:00,48.3,21.2,29.81,East,84,18.4,18.4,34,0.00,CLR,,0.00,WeatherDisplay:10.37,2013-02-06 23:31:00,
2013-02-06 16:32:00,48.3,21.2,29.81,ENE,65,18.4,18.4,34,0.00,CLR,,0.00,WeatherDisplay:10.37,2013-02-06 23:32:00,
2013-02-06 16:36:00,48.0,21.6,29.81,East,94,13.8,13.8,35,0.00,CLR,,0.00,WeatherDisplay:10.37,2013-02-06 23:36:00,
2013-02-06 16:37:00,47.9,21.5,29.81,East,97,11.5,11.5,35,0.00,CLR,,0.00,WeatherDisplay:10.37,2013-02-06 23:37:00,
2013-02-06 16:41:00,47.7,21.3,29.82,East,93,11.5,11.5,35,0.00,CLR,,0.00,WeatherDisplay:10.37,2013-02-06 23:41:00,
2013-02-06 16:42:00,47.7,22.0,29.82,East,79,17.3,17.3,36,0.00,CLR,,0.00,WeatherDisplay:10.37,2013-02-06 23:42:00,
2013-02-06 16:46:00,47.6,21.9,29.82,ESE,106,15.0,15.0,36,0.00,CLR,,0.00,WeatherDisplay:10.37,2013-02-06 23:46:00,
2013-02-06 16:47:00,47.6,21.9,29.82,SE,128,13.8,13.8,36,0.00,CLR,,0.00,WeatherDisplay:10.37,2013-02-06 23:47:00,
2013-02-06 16:51:00,47.6,21.9,29.83,East,79,6.9,6.9,36,0.00,CLR,,0.00,WeatherDisplay:10.37,2013-02-06 23:51:00,
2013-02-06 16:52:00,47.7,22.0,29.83,NE,48,11.5,11.5,36,0.00,CLR,,0.00,WeatherDisplay:10.37,2013-02-06 23:52:00,
2013-02-06 16:53:00,47.7,22.0,29.83,East,93,6.0,6.0,36,0.00,CLR,,0.00,WeatherDisplay:10.37,2013-02-06 23:53:00,
2013-02-06 16:56:00,47.6,22.6,29.83,East,100,4.6,4.6,37,0.00,CLR,,0.00,WeatherDisplay:10.37,2013-02-06 23:56:00,
2013-02-06 16:57:00,47.4,22.4,29.83,East,84,23.0,23.0,37,0.00,CLR,,0.00,WeatherDisplay:10.37,2013-02-06 23:57:00,
2013-02-06 16:58:00,47.4,22.4,29.84,ESE,122,11.5,11.5,37,0.00,CLR,,0.00,WeatherDisplay:10.37,2013-02-06 23:58:00,
2013-02-06 17:01:00,47.4,22.4,29.85,ENE,67,6.9,6.9,37,0.00,CLR,,0.00,WeatherDisplay:10.37,2013-02-07 00:01:00,
2013-02-06 17:02:00,47.3,22.9,29.85,East,79,7.0,7.0,38,0.00,CLR,,0.00,WeatherDisplay:10.37,2013-02-07 00:02:00,
2013-02-06 17:03:00,47.3,22.9,29.85,ENE,60,6.9,6.9,38,0.00,CLR,,0.00,WeatherDisplay:10.37,2013-02-07 00:03:00,
2013-02-06 17:06:00,46.8,23.1,29.85,ENE,72,1.1,1.1,39,0.00,CLR,,0.00,WeatherDisplay:10.37,2013-02-07 00:06:00,
2013-02-06 17:08:00,46.8,23.1,29.85,ENE,62,1.1,0.0,39,0.00,CLR,,0.00,WeatherDisplay:10.37,2013-02-07 00:08:00,
2013-02-06 17:11:00,46.5,22.8,29.85,NE,41,10.4,10.4,39,0.00,CLR,,0.00,WeatherDisplay:10.37,2013-02-07 00:11:00,
2013-02-06 17:12:00,46.5,22.8,29.85,East,81,10.4,10.4,39,0.00,CLR,,0.00,WeatherDisplay:10.37,2013-02-07 00:12:00,
2013-02-06 17:13:00,46.8,22.5,29.85,ESE,103,9.0,9.0,38,0.00,CLR,,0.00,WeatherDisplay:10.37,2013-02-07 00:13:00,
2013-02-06 17:16:00,47.1,22.8,29.86,East,88,3.5,3.5,38,0.00,CLR,,0.00,WeatherDisplay:10.37,2013-02-07 00:16:00,
2013-02-06 17:17:00,47.1,22.1,29.85,East,88,3.5,3.5,37,0.00,CLR,,0.00,WeatherDisplay:10.37,2013-02-07 00:17:00,
2013-02-06 17:18:00,47.3,22.3,29.85,East,86,3.5,3.5,37,0.00,CLR,,0.00,WeatherDisplay:10.37,2013-02-07 00:18:00,
2013-02-06 17:21:00,47.4,22.4,29.86,NNE,28,4.0,4.0,37,0.00,CLR,,0.00,WeatherDisplay:10.37,2013-02-07 00:21:00,
2013-02-06 17:22:00,47.3,22.3,29.86,NNE,28,4.6,4.6,37,0.00,CLR,,0.00,WeatherDisplay:10.37,2013-02-07 00:22:00,
2013-02-06 17:23:00,47.3,22.3,29.86,NE,45,3.5,3.5,37,0.00,CLR,,0.00,WeatherDisplay:10.37,2013-02-07 00:23:00,
2013-02-06 17:27:00,46.8,22.5,29.86,ENE,67,3.5,3.5,38,0.00,CLR,,0.00,WeatherDisplay:10.37,2013-02-07 00:27:00,
2013-02-06 17:28:00,46.8,22.5,29.86,ESE,111,10.4,10.4,38,0.00,CLR,,0.00,WeatherDisplay:10.37,2013-02-07 00:28:00,
2013-02-06 17:32:00,47.0,22.0,29.86,ENE,58,5.8,5.8,37,0.00,CLR,,0.00,WeatherDisplay:10.37,2013-02-07 00:32:00,
2013-02-06 17:34:00,47.1,21.5,29.87,East,101,9.0,9.0,36,0.00,CLR,,0.00,WeatherDisplay:10.37,2013-02-07 00:34:00,
2013-02-06 17:37:00,47.0,22.7,29.87,NNE,32,10.4,10.4,38,0.00,CLR,,0.00,WeatherDisplay:10.37,2013-02-07 00:37:00,
2013-02-06 17:38:00,47.0,22.7,29.87,NNE,25,10.4,10.4,38,0.00,CLR,,0.00,WeatherDisplay:10.37,2013-02-07 00:38:00,
2013-02-06 17:39:00,46.7,22.4,29.87,North,4,15.0,15.0,38,0.00,CLR,,0.00,WeatherDisplay:10.37,2013-02-07 00:39:00,
2013-02-06 17:42:00,46.4,22.8,29.87,NNE,25,6.0,6.0,39,0.00,CLR,,0.00,WeatherDisplay:10.37,2013-02-07 00:42:00,
2013-02-06 17:43:00,46.2,22.6,29.87,NNE,20,9.2,9.2,39,0.00,CLR,,0.00,WeatherDisplay:10.37,2013-02-07 00:43:00,
2013-02-06 17:44:00,46.1,23.1,29.87,North,1,3.5,3.5,40,0.00,CLR,,0.00,WeatherDisplay:10.37,2013-02-07 00:44:00,
2013-02-06 17:47:00,46.0,23.0,29.88,NNE,29,7.0,7.0,40,0.00,CLR,,0.00,WeatherDisplay:10.37,2013-02-07 00:47:00,
2013-02-06 17:48:00,45.8,22.8,29.88,NNE,32,10.4,10.4,40,0.00,CLR,,0.00,WeatherDisplay:10.37,2013-02-07 00:48:00,
2013-02-06 17:49:00,45.8,22.8,29.88,NNE,20,10.4,10.4,40,0.00,CLR,,0.00,WeatherDisplay:10.37,2013-02-07 00:49:00,
2013-02-06 17:50:00,45.7,22.7,29.88,NE,35,13.8,13.8,40,0.00,CLR,,0.00,WeatherDisplay:10.37,2013-02-07 00:50:00,
2013-02-06 17:52:00,45.5,22.5,29.88,NNE,25,10.4,10.4,40,0.00,CLR,,0.00,WeatherDisplay:10.37,2013-02-07 00:52:00,
2013-02-06 17:53:00,45.5,22.5,29.88,NE,35,11.5,11.5,40,0.00,CLR,,0.00,WeatherDisplay:10.37,2013-02-07 00:53:00,
2013-02-06 17:55:00,45.5,22.5,29.88,NNE,32,9.2,9.2,40,0.00,CLR,,0.00,WeatherDisplay:10.37,2013-02-07 00:55:00,
2013-02-06 17:57:00,45.5,22.5,29.89,NNE,23,13.8,13.8,40,0.00,CLR,,0.00,WeatherDisplay:10.37,2013-02-07 00:57:00,
2013-02-06 17:58:00,45.5,22.5,29.89,ENE,78,18.4,18.4,40,0.00,CLR,,0.00,WeatherDisplay:10.37,2013-02-07 00:58:00,
2013-02-06 18:00:00,45.5,22.5,29.89,East,91,15.0,15.0,40,0.00,CLR,,0.00,WeatherDisplay:10.37,2013-02-07 01:00:00,
2013-02-06 18:03:00,45.2,22.3,29.90,NNE,15,11.5,11.5,40,0.00,CLR,,0.00,WeatherDisplay:10.37,2013-02-07 01:03:00,
2013-02-06 18:05:00,45.1,22.8,29.90,NNE,29,16.1,16.1,41,0.00,CLR,,0.00,WeatherDisplay:10.37,2013-02-07 01:05:00,
2013-02-06 18:08:00,44.9,23.2,29.90,NNE,24,15.0,15.0,42,0.00,CLR,,0.00,WeatherDisplay:10.37,2013-02-07 01:08:00,
2013-02-06 18:10:00,44.8,23.6,29.91,NNW,340,11.5,11.5,43,0.00,CLR,,0.00,WeatherDisplay:10.37,2013-02-07 01:10:00,
2013-02-06 18:11:00,44.6,24.0,29.91,North,10,11.5,11.5,44,0.00,CLR,,0.00,WeatherDisplay:10.37,2013-02-07 01:11:00,
2013-02-06 18:13:00,44.5,23.9,29.91,North,5,16.1,16.1,44,0.00,CLR,,0.00,WeatherDisplay:10.37,2013-02-07 01:13:00,
2013-02-06 18:14:00,44.5,23.9,29.91,NNE,18,18.4,18.4,44,0.00,CLR,,0.00,WeatherDisplay:10.37,2013-02-07 01:14:00,
2013-02-06 18:15:00,44.3,23.2,29.91,NE,43,12.7,12.7,43,0.00,CLR,,0.00,WeatherDisplay:10.37,2013-02-07 01:15:00,
2013-02-06 18:16:00,44.3,23.2,29.91,North,350,12.7,12.7,43,0.00,CLR,,0.00,WeatherDisplay:10.37,2013-02-07 01:16:00,
2013-02-06 18:18:00,44.1,24.6,29.93,NE,41,20.7,20.7,46,0.00,CLR,,0.00,WeatherDisplay:10.37,2013-02-07 01:18:00,
2013-02-06 18:19:00,44.1,24.6,29.93,NE,39,20.7,20.7,46,0.00,CLR,,0.00,WeatherDisplay:10.37,2013-02-07 01:19:00,
2013-02-06 18:20:00,44.1,24.6,29.93,NE,34,19.6,19.6,46,0.00,CLR,,0.00,WeatherDisplay:10.37,2013-02-07 01:20:00,
2013-02-06 18:21:00,43.9,24.4,29.93,North,355,11.5,11.5,46,0.00,CLR,,0.00,WeatherDisplay:10.37,2013-02-07 01:21:00,
2013-02-06 18:23:00,43.6,24.7,29.93,North,354,9.2,9.2,47,0.00,CLR,,0.00,WeatherDisplay:10.37,2013-02-07 01:23:00,
2013-02-06 18:24:00,43.6,24.7,29.93,North,10,6.9,6.9,47,0.00,CLR,,0.00,WeatherDisplay:10.37,2013-02-07 01:24:00,
2013-02-06 18:25:00,43.5,24.6,29.93,North,3,11.5,11.5,47,0.00,CLR,,0.00,WeatherDisplay:10.37,2013-02-07 01:25:00,
2013-02-06 18:26:00,43.3,24.4,29.93,NNW,347,11.5,11.5,47,0.00,CLR,,0.00,WeatherDisplay:10.37,2013-02-07 01:26:00,
2013-02-06 18:28:00,43.1,24.7,29.93,North,4,10.0,10.0,48,0.00,CLR,,0.00,WeatherDisplay:10.37,2013-02-07 01:28:00,
2013-02-06 18:29:00,43.1,24.7,29.93,NNW,346,10.4,10.4,48,0.00,CLR,,0.00,WeatherDisplay:10.37,2013-02-07 01:29:00,
2013-02-06 18:31:00,42.9,24.5,29.93,NNE,18,10.4,10.4,48,0.00,CLR,,0.00,WeatherDisplay:10.37,2013-02-07 01:31:00,
2013-02-06 18:33:00,42.6,24.8,29.93,North,350,9.2,9.2,49,0.00,CLR,,0.00,WeatherDisplay:10.37,2013-02-07 01:33:00,
2013-02-06 18:34:00,42.5,25.1,29.93,North,8,12.7,12.7,50,0.00,CLR,,0.00,WeatherDisplay:10.37,2013-02-07 01:34:00,
2013-02-06 18:36:00,42.5,25.1,29.93,NNE,13,11.5,11.5,50,0.00,CLR,,0.00,WeatherDisplay:10.37,2013-02-07 01:36:00,
2013-02-06 18:38:00,42.3,25.0,29.94,North,4,12.7,12.7,50,0.00,CLR,,0.00,WeatherDisplay:10.37,2013-02-07 01:38:00,
2013-02-06 18:39:00,42.3,25.0,29.94,North,0,12.7,12.7,50,0.00,CLR,,0.00,WeatherDisplay:10.37,2013-02-07 01:39:00,
2013-02-06 18:41:00,42.3,25.0,29.94,North,10,12.7,12.7,50,0.00,CLR,,0.00,WeatherDisplay:10.37,2013-02-07 01:41:00,
2013-02-06 18:44:00,42.3,25.4,29.94,North,1,14.0,14.0,51,0.00,CLR,,0.00,WeatherDisplay:10.37,2013-02-07 01:44:00,
2013-02-06 18:46:00,42.2,25.8,29.94,North,5,16.1,16.1,52,0.00,CLR,,0.00,WeatherDisplay:10.37,2013-02-07 01:46:00,
2013-02-06 18:49:00,41.9,26.4,29.94,North,0,13.8,13.8,54,0.00,CLR,,0.00,WeatherDisplay:10.37,2013-02-07 01:49:00,
2013-02-06 18:51:00,41.6,27.1,29.94,NNW,332,11.5,11.5,56,0.00,CLR,,0.00,WeatherDisplay:10.37,2013-02-07 01:51:00,
2013-02-06 18:54:00,41.3,27.6,29.94,NNW,337,11.5,11.5,58,0.00,CLR,,0.00,WeatherDisplay:10.37,2013-02-07 01:54:00,
2013-02-06 18:55:00,41.2,27.5,29.94,NW,322,11.5,11.5,58,0.00,CLR,,0.00,WeatherDisplay:10.37,2013-02-07 01:55:00,
2013-02-06 18:56:00,41.1,27.9,29.94,North,3,10.4,10.4,59,0.00,CLR,,0.00,WeatherDisplay:10.37,2013-02-07 01:56:00,
2013-02-06 18:57:00,41.1,27.9,29.94,NNW,339,10.4,10.4,59,0.00,CLR,,0.00,WeatherDisplay:10.37,2013-02-07 01:57:00,
2013-02-06 18:59:00,40.9,27.7,29.94,NW,323,6.9,6.9,59,0.00,CLR,,0.00,WeatherDisplay:10.37,2013-02-07 01:59:00,
2013-02-06 19:00:00,40.8,28.0,29.94,NNW,345,6.9,6.9,60,0.00,CLR,,0.00,WeatherDisplay:10.37,2013-02-07 02:00:00,
2013-02-06 19:01:00,40.8,28.0,29.93,NW,323,6.0,6.0,60,0.00,CLR,,0.00,WeatherDisplay:10.37,2013-02-07 02:01:00,
2013-02-06 19:02:00,40.6,27.8,29.93,NW,325,5.8,5.8,60,0.00,CLR,,0.00,WeatherDisplay:10.37,2013-02-07 02:02:00,
2013-02-06 19:04:00,40.6,28.2,29.93,NNW,332,6.9,6.9,61,0.00,CLR,,0.00,WeatherDisplay:10.37,2013-02-07 02:04:00,
2013-02-06 19:05:00,40.5,28.1,29.93,NW,321,6.0,6.0,61,0.00,CLR,,0.00,WeatherDisplay:10.37,2013-02-07 02:05:00,
2013-02-06 19:06:00,40.3,27.9,29.93,NNW,330,5.8,5.8,61,0.00,CLR,,0.00,WeatherDisplay:10.37,2013-02-07 02:06:00,
2013-02-06 19:07:00,40.3,27.9,29.93,NNW,332,6.9,6.9,61,0.00,CLR,,0.00,WeatherDisplay:10.37,2013-02-07 02:07:00,
2013-02-06 19:09:00,40.2,27.8,29.93,NNW,337,5.8,5.8,61,0.00,CLR,,0.00,WeatherDisplay:10.37,2013-02-07 02:09:00,
2013-02-06 19:10:00,40.2,27.8,29.93,NNW,334,4.6,4.6,61,0.00,CLR,,0.00,WeatherDisplay:10.37,2013-02-07 02:10:00,
2013-02-06 19:12:00,40.1,27.7,29.93,NNW,346,3.5,3.5,61,0.00,CLR,,0.00,WeatherDisplay:10.37,2013-02-07 02:12:00,
2013-02-06 19:13:00,40.1,27.7,29.93,NNW,332,4.6,4.6,61,0.00,CLR,,0.00,WeatherDisplay:10.37,2013-02-07 02:13:00,
2013-02-06 19:14:00,40.1,27.7,29.93,NNW,330,2.3,2.3,61,0.00,CLR,,0.00,WeatherDisplay:10.37,2013-02-07 02:14:00,
2013-02-06 19:16:00,40.1,27.7,29.93,NNW,330,2.3,2.3,61,0.00,CLR,,0.00,WeatherDisplay:10.37,2013-02-07 02:16:00,
2013-02-06 19:17:00,40.1,27.7,29.93,NNW,330,2.3,2.3,61,0.00,CLR,,0.00,WeatherDisplay:10.37,2013-02-07 02:17:00,
2013-02-06 19:18:00,40.1,27.7,29.93,NNW,330,0.0,0.0,61,0.00,CLR,,0.00,WeatherDisplay:10.37,2013-02-07 02:18:00,
2013-02-06 19:19:00,40.1,27.7,29.94,NNW,330,2.3,2.3,61,0.00,CLR,,0.00,WeatherDisplay:10.37,2013-02-07 02:19:00,
2013-02-06 19:21:00,40.1,27.7,29.94,NNW,330,0.0,0.0,61,0.00,CLR,,0.00,WeatherDisplay:10.37,2013-02-07 02:21:00,
2013-02-06 19:22:00,39.9,27.5,29.94,NNW,330,1.1,1.1,61,0.00,CLR,,0.00,WeatherDisplay:10.37,2013-02-07 02:22:00,
2013-02-06 19:23:00,39.9,27.5,29.94,NNW,330,0.0,0.0,61,0.00,CLR,,0.00,WeatherDisplay:10.37,2013-02-07 02:23:00,
2013-02-06 19:24:00,39.9,27.5,29.94,NNW,330,0.0,0.0,61,0.00,CLR,,0.00,WeatherDisplay:10.37,2013-02-07 02:24:00,
2013-02-06 19:26:00,39.8,27.4,29.94,NNW,330,0.0,0.0,61,0.00,CLR,,0.00,WeatherDisplay:10.37,2013-02-07 02:26:00,
2013-02-06 19:27:00,39.8,27.4,29.94,NNW,330,0.0,0.0,61,0.00,CLR,,0.00,WeatherDisplay:10.37,2013-02-07 02:27:00,
2013-02-06 19:28:00,39.8,27.4,29.94,NNW,330,0.0,0.0,61,0.00,CLR,,0.00,WeatherDisplay:10.37,2013-02-07 02:28:00,
2013-02-06 19:29:00,39.6,27.6,29.94,NNW,330,1.1,0.0,62,0.00,CLR,,0.00,WeatherDisplay:10.37,2013-02-07 02:29:00,
2013-02-06 19:31:00,39.6,27.6,29.94,NNW,330,1.1,1.1,62,0.00,CLR,,0.00,WeatherDisplay:10.37,2013-02-07 02:31:00,
2013-02-06 19:32:00,39.5,27.5,29.94,NNW,330,0.0,0.0,62,0.00,CLR,,0.00,WeatherDisplay:10.37,2013-02-07 02:32:00,
2013-02-06 19:33:00,39.5,27.5,29.95,NNW,330,0.0,0.0,62,0.00,CLR,,0.00,WeatherDisplay:10.37,2013-02-07 02:33:00,
2013-02-06 19:34:00,39.5,27.5,29.95,NNW,330,0.0,0.0,62,0.00,CLR,,0.00,WeatherDisplay:10.37,2013-02-07 02:34:00,
2013-02-06 19:36:00,39.3,27.4,29.96,NNW,330,1.1,0.0,62,0.00,CLR,,0.00,WeatherDisplay:10.37,2013-02-07 02:36:00,
2013-02-06 19:37:00,39.3,27.4,29.96,NNW,330,0.0,0.0,62,0.00,CLR,,0.00,WeatherDisplay:10.37,2013-02-07 02:37:00,
2013-02-06 19:38:00,39.3,27.4,29.96,NNW,330,0.0,0.0,62,0.00,CLR,,0.00,WeatherDisplay:10.37,2013-02-07 02:38:00,
2013-02-06 19:39:00,39.3,27.4,29.96,North,7,6.0,6.0,62,0.00,CLR,,0.00,WeatherDisplay:10.37,2013-02-07 02:39:00,
2013-02-06 19:42:00,39.3,26.6,29.96,NNW,334,3.5,3.5,60,0.00,CLR,,0.00,WeatherDisplay:10.37,2013-02-07 02:42:00,
2013-02-06 19:43:00,39.5,25.9,29.96,NNW,347,2.3,2.3,58,0.00,CLR,,0.00,WeatherDisplay:10.37,2013-02-07 02:43:00,
2013-02-06 19:44:00,39.5,25.9,29.95,NNW,333,3.5,3.5,58,0.00,CLR,,0.00,WeatherDisplay:10.37,2013-02-07 02:44:00,
2013-02-06 19:47:00,39.6,26.0,29.95,NNW,333,1.1,1.1,58,0.00,CLR,,0.00,WeatherDisplay:10.37,2013-02-07 02:47:00,
2013-02-06 19:48:00,39.8,25.8,29.95,NNW,333,1.1,1.1,57,0.00,CLR,,0.00,WeatherDisplay:10.37,2013-02-07 02:48:00,
2013-02-06 19:49:00,39.9,25.9,29.95,NNW,333,0.0,0.0,57,0.00,CLR,,0.00,WeatherDisplay:10.37,2013-02-07 02:49:00,
2013-02-06 19:52:00,39.9,25.5,29.95,NNW,345,3.5,3.5,56,0.00,CLR,,0.00,WeatherDisplay:10.37,2013-02-07 02:52:00,
2013-02-06 19:53:00,40.1,25.6,29.95,NNW,345,0.0,0.0,56,0.00,CLR,,0.00,WeatherDisplay:10.37,2013-02-07 02:53:00,
2013-02-06 19:55:00,40.1,25.6,29.95,NNW,345,0.0,0.0,56,0.00,CLR,,0.00,WeatherDisplay:10.37,2013-02-07 02:55:00,
2013-02-06 19:57:00,40.1,25.6,29.95,NNW,345,0.0,0.0,56,0.00,CLR,,0.00,WeatherDisplay:10.37,2013-02-07 02:57:00,
2013-02-06 19:58:00,40.1,25.6,29.95,NNW,345,0.0,0.0,56,0.00,CLR,,0.00,WeatherDisplay:10.37,2013-02-07 02:58:00,
2013-02-06 19:59:00,40.1,25.6,29.95,NNW,345,0.0,0.0,56,0.00,CLR,,0.00,WeatherDisplay:10.37,2013-02-07 02:59:00,
2013-02-06 20:00:00,40.1,25.2,29.95,NNW,345,0.0,0.0,55,0.00,CLR,,0.00,WeatherDisplay:10.37,2013-02-07 03:00:00,
2013-02-06 20:02:00,40.1,25.6,29.90,NNW,345,0.0,0.0,56,0.00,CLR,,0.00,WeatherDisplay:10.37,2013-02-07 03:02:00,
2013-02-06 20:04:00,40.1,25.6,29.90,NNW,345,0.0,0.0,56,0.00,CLR,,0.00,WeatherDisplay:10.37,2013-02-07 03:04:00,
2013-02-06 20:05:00,39.9,25.0,29.90,NNW,345,0.0,0.0,55,0.00,CLR,,0.00,WeatherDisplay:10.37,2013-02-07 03:05:00,
2013-02-06 20:07:00,39.9,25.5,29.90,NNW,345,0.0,0.0,56,0.00,CLR,,0.00,WeatherDisplay:10.37,2013-02-07 03:07:00,
2013-02-06 20:09:00,39.9,25.5,29.90,NNW,346,3.5,3.5,56,0.00,CLR,,0.00,WeatherDisplay:10.37,2013-02-07 03:09:00,
2013-02-06 20:10:00,39.9,25.9,29.90,NNW,346,1.1,1.1,57,0.00,CLR,,0.00,WeatherDisplay:10.37,2013-02-07 03:10:00,
2013-02-06 20:12:00,39.8,25.4,29.90,NNW,346,0.0,0.0,56,0.00,CLR,,0.00,WeatherDisplay:10.37,2013-02-07 03:12:00,
2013-02-06 20:14:00,39.8,25.4,29.90,NNW,346,0.0,0.0,56,0.00,CLR,,0.00,WeatherDisplay:10.37,2013-02-07 03:14:00,
2013-02-06 20:15:00,39.8,25.4,29.90,NNW,346,0.0,0.0,56,0.00,CLR,,0.00,WeatherDisplay:10.37,2013-02-07 03:15:00,
2013-02-06 20:17:00,39.8,25.4,29.90,NNW,346,0.0,0.0,56,0.00,CLR,,0.00,WeatherDisplay:10.37,2013-02-07 03:17:00,
2013-02-06 20:19:00,39.8,25.4,29.91,NNW,346,0.0,0.0,56,0.00,CLR,,0.00,WeatherDisplay:10.37,2013-02-07 03:19:00,
2013-02-06 20:20:00,39.6,25.2,29.91,NNW,346,0.0,0.0,56,0.00,CLR,,0.00,WeatherDisplay:10.37,2013-02-07 03:20:00,
2013-02-06 20:22:00,39.6,25.2,29.91,NNW,346,0.0,0.0,56,0.00,CLR,,0.00,WeatherDisplay:10.37,2013-02-07 03:22:00,
2013-02-06 20:24:00,39.6,25.2,29.91,NNW,346,0.0,0.0,56,0.00,CLR,,0.00,WeatherDisplay:10.37,2013-02-07 03:24:00,
2013-02-06 20:25:00,39.6,25.2,29.91,NNW,346,0.0,0.0,56,0.00,CLR,,0.00,WeatherDisplay:10.37,2013-02-07 03:25:00,
2013-02-06 20:27:00,39.5,25.5,29.91,NNW,346,0.0,0.0,57,0.00,CLR,,0.00,WeatherDisplay:10.37,2013-02-07 03:27:00,
2013-02-06 20:29:00,39.5,25.5,29.91,NNW,346,0.0,0.0,57,0.00,CLR,,0.00,WeatherDisplay:10.37,2013-02-07 03:29:00,
2013-02-06 20:30:00,39.3,24.9,29.91,NNW,346,0.0,0.0,56,0.00,CLR,,0.00,WeatherDisplay:10.37,2013-02-07 03:30:00,
2013-02-06 20:32:00,39.3,25.3,29.91,NNW,346,0.0,0.0,57,0.00,CLR,,0.00,WeatherDisplay:10.37,2013-02-07 03:32:00,
2013-02-06 20:34:00,39.2,25.6,29.91,NNW,346,0.0,0.0,58,0.00,CLR,,0.00,WeatherDisplay:10.37,2013-02-07 03:34:00,
2013-02-06 20:35:00,39.2,25.6,29.91,NNW,346,0.0,0.0,58,0.00,CLR,,0.00,WeatherDisplay:10.37,2013-02-07 03:35:00,
2013-02-06 20:36:00,39.2,25.6,29.91,NNW,346,0.0,0.0,58,0.00,CLR,,0.00,WeatherDisplay:10.37,2013-02-07 03:36:00,
2013-02-06 20:37:00,39.2,25.6,29.91,NNW,346,0.0,0.0,58,0.00,CLR,,0.00,WeatherDisplay:10.37,2013-02-07 03:37:00,
2013-02-06 20:39:00,39.1,25.6,29.91,NNW,346,0.0,0.0,58,0.00,CLR,,0.00,WeatherDisplay:10.37,2013-02-07 03:39:00,
2013-02-06 20:41:00,39.1,25.6,29.92,NNW,346,1.0,1.0,58,0.00,CLR,,0.00,WeatherDisplay:10.37,2013-02-07 03:41:00,
2013-02-06 20:43:00,39.2,25.2,29.92,ENE,65,2.3,0.0,57,0.00,CLR,,0.00,WeatherDisplay:10.37,2013-02-07 03:43:00,
2013-02-06 20:45:00,39.3,25.3,29.92,ENE,58,3.0,3.0,57,0.00,CLR,,0.00,WeatherDisplay:10.37,2013-02-07 03:45:00,
2013-02-06 20:46:00,39.5,24.7,29.93,ENE,59,3.5,3.5,55,0.00,CLR,,0.00,WeatherDisplay:10.37,2013-02-07 03:46:00,
2013-02-06 20:48:00,39.8,24.9,29.93,ENE,59,1.1,1.1,55,0.00,CLR,,0.00,WeatherDisplay:10.37,2013-02-07 03:48:00,
2013-02-06 20:50:00,39.9,24.6,29.92,ENE,59,1.1,0.0,54,0.00,CLR,,0.00,WeatherDisplay:10.37,2013-02-07 03:50:00,
2013-02-06 20:51:00,40.1,24.8,29.92,ENE,59,0.0,0.0,54,0.00,CLR,,0.00,WeatherDisplay:10.37,2013-02-07 03:51:00,
2013-02-06 20:53:00,40.2,24.9,29.92,ENE,59,0.0,0.0,54,0.00,CLR,,0.00,WeatherDisplay:10.37,2013-02-07 03:53:00,
2013-02-06 20:55:00,40.2,24.9,29.92,ENE,59,1.0,0.0,54,0.00,CLR,,0.00,WeatherDisplay:10.37,2013-02-07 03:55:00,
2013-02-06 20:56:00,40.3,25.0,29.92,ENE,67,3.5,3.5,54,0.00,CLR,,0.00,WeatherDisplay:10.37,2013-02-07 03:56:00,
2013-02-06 20:57:00,40.3,25.0,29.92,ENE,67,3.5,3.5,54,0.00,CLR,,0.00,WeatherDisplay:10.37,2013-02-07 03:57:00,
2013-02-06 20:58:00,40.3,25.4,29.93,ENE,62,1.1,0.0,55,0.00,CLR,,0.00,WeatherDisplay:10.37,2013-02-07 03:58:00,
2013-02-06 21:00:00,40.3,25.0,29.93,ENE,62,0.0,0.0,54,0.00,CLR,,0.00,WeatherDisplay:10.37,2013-02-07 04:00:00,
2013-02-06 21:02:00,40.3,25.0,29.88,ENE,62,0.0,0.0,54,0.00,CLR,,0.00,WeatherDisplay:10.37,2013-02-07 04:02:00,
2013-02-06 21:03:00,40.3,25.0,29.88,ENE,62,0.0,0.0,54,0.00,CLR,,0.00,WeatherDisplay:10.37,2013-02-07 04:03:00,
2013-02-06 21:06:00,40.3,24.5,29.88,ENE,62,0.0,0.0,53,0.00,CLR,,0.00,WeatherDisplay:10.37,2013-02-07 04:06:00,
2013-02-06 21:07:00,40.3,24.5,29.88,ENE,62,0.0,0.0,53,0.00,CLR,,0.00,WeatherDisplay:10.37,2013-02-07 04:07:00,
2013-02-06 21:08:00,40.3,23.6,29.88,ENE,62,0.0,0.0,51,0.00,CLR,,0.00,WeatherDisplay:10.37,2013-02-07 04:08:00,
2013-02-06 21:11:00,40.5,23.8,29.88,NE,54,0.0,0.0,51,0.00,CLR,,0.00,WeatherDisplay:10.37,2013-02-07 04:11:00,
2013-02-06 21:12:00,40.5,23.8,29.88,NE,53,1.1,1.1,51,0.00,CLR,,0.00,WeatherDisplay:10.37,2013-02-07 04:12:00,
2013-02-06 21:13:00,40.6,23.9,29.89,NE,54,1.1,0.0,51,0.00,CLR,,0.00,WeatherDisplay:10.37,2013-02-07 04:13:00,
2013-02-06 21:14:00,40.6,23.9,29.89,NE,53,1.1,1.1,51,0.00,CLR,,0.00,WeatherDisplay:10.37,2013-02-07 04:14:00,
2013-02-06 21:16:00,40.8,23.6,29.89,ENE,65,3.5,3.5,50,0.00,CLR,,0.00,WeatherDisplay:10.37,2013-02-07 04:16:00,
2013-02-06 21:17:00,40.8,23.6,29.89,ENE,58,3.5,3.5,50,0.00,CLR,,0.00,WeatherDisplay:10.37,2013-02-07 04:17:00,
2013-02-06 21:18:00,40.8,23.6,29.89,ENE,59,3.5,3.5,50,0.00,CLR,,0.00,WeatherDisplay:10.37,2013-02-07 04:18:00,
2013-02-06 21:19:00,40.8,23.6,29.90,ENE,61,3.5,3.5,50,0.00,CLR,,0.00,WeatherDisplay:10.37,2013-02-07 04:19:00,
2013-02-06 21:21:00,40.8,23.6,29.90,NNE,22,5.0,5.0,50,0.00,CLR,,0.00,WeatherDisplay:10.37,2013-02-07 04:21:00,
2013-02-06 21:22:00,40.6,23.4,29.90,NE,46,4.6,4.6,50,0.00,CLR,,0.00,WeatherDisplay:10.37,2013-02-07 04:22:00,
2013-02-06 21:23:00,40.6,23.4,29.90,NNE,20,4.6,4.6,50,0.00,CLR,,0.00,WeatherDisplay:10.37,2013-02-07 04:23:00,
2013-02-06 21:24:00,40.6,23.4,29.90,NNE,31,3.5,3.5,50,0.00,CLR,,0.00,WeatherDisplay:10.37,2013-02-07 04:24:00,
2013-02-06 21:26:00,40.5,23.8,29.90,NE,39,3.5,3.5,51,0.00,CLR,,0.00,WeatherDisplay:10.37,2013-02-07 04:26:00,
2013-02-06 21:27:00,40.3,23.6,29.90,NE,55,3.5,3.5,51,0.00,CLR,,0.00,WeatherDisplay:10.37,2013-02-07 04:27:00,
2013-02-06 21:28:00,40.2,24.0,29.90,NE,53,4.6,4.6,52,0.00,CLR,,0.00,WeatherDisplay:10.37,2013-02-07 04:28:00,
2013-02-06 21:29:00,40.1,24.3,29.90,NE,55,3.5,3.5,53,0.00,CLR,,0.00,WeatherDisplay:10.37,2013-02-07 04:29:00,
2013-02-06 21:31:00,39.6,24.7,29.90,NE,47,3.5,3.5,55,0.00,CLR,,0.00,WeatherDisplay:10.37,2013-02-07 04:31:00,
2013-02-06 21:32:00,39.5,25.1,29.90,NE,53,4.6,4.6,56,0.00,CLR,,0.00,WeatherDisplay:10.37,2013-02-07 04:32:00,
2013-02-06 21:33:00,39.3,25.3,29.90,NE,49,3.5,3.5,57,0.00,CLR,,0.00,WeatherDisplay:10.37,2013-02-07 04:33:00,
2013-02-06 21:34:00,39.1,25.6,29.91,NE,53,2.3,2.3,58,0.00,CLR,,0.00,WeatherDisplay:10.37,2013-02-07 04:34:00,
2013-02-06 21:37:00,38.6,25.9,29.91,NNE,31,3.5,3.5,60,0.00,CLR,,0.00,WeatherDisplay:10.37,2013-02-07 04:37:00,
2013-02-06 21:38:00,38.3,26.4,29.91,NE,46,1.1,1.1,62,0.00,CLR,,0.00,WeatherDisplay:10.37,2013-02-07 04:38:00,
2013-02-06 21:40:00,38.2,26.7,29.91,NE,46,2.3,2.3,63,0.00,CLR,,0.00,WeatherDisplay:10.37,2013-02-07 04:40:00,
2013-02-06 21:42:00,37.8,26.7,29.91,NE,47,0.0,0.0,64,0.00,CLR,,0.00,WeatherDisplay:10.37,2013-02-07 04:42:00,
2013-02-06 21:44:00,37.8,27.1,29.91,NNE,27,5.8,5.8,65,0.00,CLR,,0.00,WeatherDisplay:10.37,2013-02-07 04:44:00,
2013-02-06 21:45:00,37.8,27.1,29.91,NNE,27,3.5,3.5,65,0.00,CLR,,0.00,WeatherDisplay:10.37,2013-02-07 04:45:00,
2013-02-06 21:47:00,37.8,27.5,29.91,North,358,2.3,2.3,66,0.00,CLR,,0.00,WeatherDisplay:10.37,2013-02-07 04:47:00,
2013-02-06 21:49:00,37.8,27.5,29.91,North,358,0.0,0.0,66,0.00,CLR,,0.00,WeatherDisplay:10.37,2013-02-07 04:49:00,
2013-02-06 21:50:00,37.8,27.5,29.91,North,358,0.0,0.0,66,0.00,CLR,,0.00,WeatherDisplay:10.37,2013-02-07 04:50:00,
2013-02-06 21:52:00,37.9,27.5,29.92,North,358,0.0,0.0,66,0.00,CLR,,0.00,WeatherDisplay:10.37,2013-02-07 04:52:00,
2013-02-06 21:54:00,37.9,28.3,29.91,North,358,0.0,0.0,68,0.00,CLR,,0.00,WeatherDisplay:10.37,2013-02-07 04:54:00,
2013-02-06 21:55:00,37.8,27.8,29.91,North,349,0.0,0.0,67,0.00,CLR,,0.00,WeatherDisplay:10.37,2013-02-07 04:55:00,
2013-02-06 21:57:00,37.9,28.3,29.92,NW,324,3.5,3.5,68,0.00,CLR,,0.00,WeatherDisplay:10.37,2013-02-07 04:57:00,
2013-02-06 21:58:00,37.9,28.3,29.92,NW,324,3.5,3.5,68,0.00,CLR,,0.00,WeatherDisplay:10.37,2013-02-07 04:58:00,
2013-02-06 22:00:00,38.0,28.4,29.92,NNW,328,9.2,9.2,68,0.00,CLR,,0.00,WeatherDisplay:10.37,2013-02-07 05:00:00,
2013-02-06 22:01:00,38.0,28.7,29.92,NNW,328,9.2,9.2,69,0.00,CLR,,0.00,WeatherDisplay:10.37,2013-02-07 05:01:00,
2013-02-06 22:05:00,38.0,28.7,29.92,NNW,329,3.0,3.0,69,0.00,CLR,,0.00,WeatherDisplay:10.37,2013-02-07 05:05:00,
2013-02-06 22:06:00,38.0,28.7,29.92,NNW,344,1.1,1.9,69,0.00,CLR,,0.00,WeatherDisplay:10.37,2013-02-07 05:06:00,
2013-02-06 22:10:00,37.9,28.6,29.92,NW,326,5.8,5.8,69,0.00,CLR,,0.00,WeatherDisplay:10.37,2013-02-07 05:10:00,
2013-02-06 22:11:00,37.9,28.6,29.92,NW,326,5.8,5.8,69,0.00,CLR,,0.00,WeatherDisplay:10.37,2013-02-07 05:11:00,
2013-02-06 22:15:00,38.0,28.4,29.92,NW,322,17.0,17.0,68,0.00,CLR,,0.00,WeatherDisplay:10.37,2013-02-07 05:15:00,
2013-02-06 22:16:00,38.0,28.4,29.92,NNW,336,14.0,14.0,68,0.00,CLR,,0.00,WeatherDisplay:10.37,2013-02-07 05:16:00,
2013-02-06 22:20:00,37.9,29.0,29.92,NW,316,16.1,16.1,70,0.00,CLR,,0.00,WeatherDisplay:10.37,2013-02-07 05:20:00,
2013-02-06 22:21:00,37.9,29.0,29.92,NW,316,16.1,16.1,70,0.00,CLR,,0.00,WeatherDisplay:10.37,2013-02-07 05:21:00,
2013-02-06 22:22:00,37.9,28.3,29.92,NW,309,11.5,11.5,68,0.00,CLR,,0.00,WeatherDisplay:10.37,2013-02-07 05:22:00,
2013-02-06 22:26:00,38.0,28.7,29.92,NW,307,10.4,10.4,69,0.00,CLR,,0.00,WeatherDisplay:10.37,2013-02-07 05:26:00,
2013-02-06 22:27:00,38.0,28.7,29.92,WNW,291,6.9,6.9,69,0.00,CLR,,0.00,WeatherDisplay:10.37,2013-02-07 05:27:00,
2013-02-06 22:31:00,38.0,29.1,29.92,WNW,299,6.9,6.9,70,0.00,CLR,,0.00,WeatherDisplay:10.37,2013-02-07 05:31:00,
2013-02-06 22:32:00,37.9,29.3,29.92,NNW,328,9.2,9.2,71,0.00,CLR,,0.00,WeatherDisplay:10.37,2013-02-07 05:32:00,
2013-02-06 22:36:00,37.9,29.0,29.92,NW,306,5.8,5.8,70,0.00,CLR,,0.00,WeatherDisplay:10.37,2013-02-07 05:36:00,
2013-02-06 22:37:00,37.8,28.5,29.92,NNW,342,6.9,6.9,69,0.00,CLR,,0.00,WeatherDisplay:10.37,2013-02-07 05:37:00,
2013-02-06 22:41:00,37.9,27.5,29.92,WNW,290,13.8,13.8,66,0.00,CLR,,0.00,WeatherDisplay:10.37,2013-02-07 05:41:00,
2013-02-06 22:42:00,38.0,28.0,29.93,NW,320,9.2,9.2,67,0.00,CLR,,0.00,WeatherDisplay:10.37,2013-02-07 05:42:00,
2013-02-06 22:46:00,38.2,28.2,29.92,WNW,297,4.6,4.6,67,0.00,CLR,,0.00,WeatherDisplay:10.37,2013-02-07 05:46:00,
2013-02-06 22:48:00,38.2,28.6,29.92,NNE,22,6.0,6.0,68,0.00,CLR,,0.00,WeatherDisplay:10.37,2013-02-07 05:48:00,
2013-02-06 22:51:00,38.0,28.7,29.92,NNW,338,3.5,3.5,69,0.00,CLR,,0.00,WeatherDisplay:10.37,2013-02-07 05:51:00,
2013-02-06 22:52:00,38.0,28.7,29.92,NNW,338,3.5,3.5,69,0.00,CLR,,0.00,WeatherDisplay:10.37,2013-02-07 05:52:00,
2013-02-06 22:53:00,38.0,28.7,29.92,NNE,14,5.0,5.0,69,0.00,CLR,,0.00,WeatherDisplay:10.37,2013-02-07 05:53:00,
2013-02-06 22:56:00,37.9,28.6,29.93,North,3,3.5,3.5,69,0.00,CLR,,0.00,WeatherDisplay:10.37,2013-02-07 05:56:00,
2013-02-06 22:57:00,37.8,28.9,29.93,North,355,3.5,3.5,70,0.00,CLR,,0.00,WeatherDisplay:10.37,2013-02-07 05:57:00,
2013-02-06 22:58:00,37.8,28.9,29.93,North,356,4.0,4.0,70,0.00,CLR,,0.00,WeatherDisplay:10.37,2013-02-07 05:58:00,
2013-02-06 23:01:00,37.6,29.0,29.93,North,0,4.0,4.0,71,0.00,CLR,,0.00,WeatherDisplay:10.37,2013-02-07 06:01:00,
2013-02-06 23:02:00,37.6,29.0,29.93,North,0,3.5,3.5,71,0.00,CLR,,0.00,WeatherDisplay:10.37,2013-02-07 06:02:00,
2013-02-06 23:03:00,37.6,29.0,29.94,North,0,5.8,5.8,71,0.00,CLR,,0.00,WeatherDisplay:10.37,2013-02-07 06:03:00,
2013-02-06 23:06:00,37.6,29.0,29.94,North,5,3.5,3.5,71,0.00,CLR,,0.00,WeatherDisplay:10.37,2013-02-07 06:06:00,
2013-02-06 23:07:00,37.6,29.0,29.94,North,5,3.5,3.5,71,0.00,CLR,,0.00,WeatherDisplay:10.37,2013-02-07 06:07:00,
2013-02-06 23:08:00,37.6,29.4,29.94,North,355,4.6,4.6,72,0.00,CLR,,0.00,WeatherDisplay:10.37,2013-02-07 06:08:00,
2013-02-06 23:11:00,37.6,29.7,29.94,North,349,3.5,3.5,73,0.00,CLR,,0.00,WeatherDisplay:10.37,2013-02-07 06:11:00,
2013-02-06 23:12:00,37.5,30.0,29.94,North,349,3.5,3.5,74,0.00,CLR,,0.00,WeatherDisplay:10.37,2013-02-07 06:12:00,
2013-02-06 23:13:00,37.5,30.0,29.94,North,349,2.3,2.3,74,0.00,CLR,,0.00,WeatherDisplay:10.37,2013-02-07 06:13:00,
2013-02-06 23:16:00,37.3,30.1,29.94,NNW,346,2.3,2.3,75,0.00,CLR,,0.00,WeatherDisplay:10.37,2013-02-07 06:16:00,
2013-02-06 23:17:00,37.3,30.1,29.94,NNW,346,2.3,2.3,75,0.00,CLR,,0.00,WeatherDisplay:10.37,2013-02-07 06:17:00,
2013-02-06 23:18:00,37.3,30.1,29.94,North,349,2.3,2.3,75,0.00,CLR,,0.00,WeatherDisplay:10.37,2013-02-07 06:18:00,
2013-02-06 23:21:00,37.0,30.1,29.95,North,354,4.6,4.6,76,0.00,CLR,,0.00,WeatherDisplay:10.37,2013-02-07 06:21:00,
2013-02-06 23:22:00,37.0,30.1,29.95,North,354,3.5,3.5,76,0.00,CLR,,0.00,WeatherDisplay:10.37,2013-02-07 06:22:00,
2013-02-06 23:23:00,37.0,30.1,29.95,North,354,3.5,3.5,76,0.00,CLR,,0.00,WeatherDisplay:10.37,2013-02-07 06:23:00,
2013-02-06 23:26:00,36.8,29.6,29.95,NNE,32,5.0,5.0,75,0.00,CLR,,0.00,WeatherDisplay:10.37,2013-02-07 06:26:00,
2013-02-06 23:27:00,36.8,29.6,29.95,NNE,17,4.6,4.6,75,0.00,CLR,,0.00,WeatherDisplay:10.37,2013-02-07 06:27:00,
2013-02-06 23:28:00,36.6,29.1,29.96,North,356,4.0,4.0,74,0.00,CLR,,0.00,WeatherDisplay:10.37,2013-02-07 06:28:00,
2013-02-06 23:32:00,36.3,27.4,29.97,NNE,22,3.5,3.5,70,0.00,CLR,,0.00,WeatherDisplay:10.37,2013-02-07 06:32:00,
2013-02-06 23:33:00,36.2,27.0,29.97,NNE,27,5.8,5.8,69,0.00,CLR,,0.00,WeatherDisplay:10.37,2013-02-07 06:33:00,
2013-02-06 23:34:00,36.2,26.3,29.97,NNE,22,4.6,4.6,67,0.00,CLR,,0.00,WeatherDisplay:10.37,2013-02-07 06:34:00,
2013-02-06 23:37:00,36.0,25.7,29.97,North,1,3.5,3.5,66,0.00,CLR,,0.00,WeatherDisplay:10.37,2013-02-07 06:37:00,
2013-02-06 23:38:00,36.0,25.4,29.97,North,1,3.5,3.5,65,0.00,CLR,,0.00,WeatherDisplay:10.37,2013-02-07 06:38:00,
2013-02-06 23:39:00,35.9,25.3,29.97,North,1,2.3,2.3,65,0.00,CLR,,0.00,WeatherDisplay:10.37,2013-02-07 06:39:00,
2013-02-06 23:42:00,35.6,24.6,29.97,NNE,31,3.5,3.5,64,0.00,CLR,,0.00,WeatherDisplay:10.37,2013-02-07 06:42:00,
2013-02-06 23:43:00,35.6,24.6,29.97,NNE,31,2.3,2.3,64,0.00,CLR,,0.00,WeatherDisplay:10.37,2013-02-07 06:43:00,
2013-02-06 23:44:00,35.5,24.9,29.97,NNE,31,2.3,2.3,65,0.00,CLR,,0.00,WeatherDisplay:10.37,2013-02-07 06:44:00,
2013-02-06 23:47:00,35.3,24.7,29.97,NNE,24,3.5,3.5,65,0.00,CLR,,0.00,WeatherDisplay:10.37,2013-02-07 06:47:00,
2013-02-06 23:48:00,35.2,24.6,29.97,NNE,24,3.5,3.5,65,0.00,CLR,,0.00,WeatherDisplay:10.37,2013-02-07 06:48:00,
2013-02-06 23:50:00,35.0,24.8,29.97,NNE,24,1.1,1.1,66,0.00,CLR,,0.00,WeatherDisplay:10.37,2013-02-07 06:50:00,
2013-02-06 23:52:00,34.7,24.9,29.97,NNE,24,2.3,2.3,67,0.00,CLR,,0.00,WeatherDisplay:10.37,2013-02-07 06:52:00,
2013-02-06 23:54:00,34.7,24.9,29.97,NNE,24,1.1,1.1,67,0.00,CLR,,0.00,WeatherDisplay:10.37,2013-02-07 06:54:00,
2013-02-06 23:55:00,34.6,24.8,29.97,NNE,24,3.5,3.5,67,0.00,CLR,,0.00,WeatherDisplay:10.37,2013-02-07 06:55:00,
2013-02-06 23:58:00,34.1,24.3,29.99,NNE,24,1.1,0.0,67,0.00,CLR,,0.00,WeatherDisplay:10.37,2013-02-07 06:58:00,
2013-02-06 23:59:00,34.1,24.3,29.99,NNE,27,4.6,4.6,67,0.00,CLR,,0.00,WeatherDisplay:10.37,2013-02-07 06:59:00,